<?xml version="1.0" encoding="UTF-8" standalone="no" ?>
<gpx xmlns="http://www.topografix.com/GPX/1/1" xmlns:xsi="http://www.w3.org/2001/XMLSchema-instance" xsi:schemaLocation="http://www.topografix.com/GPX/1/1 http://www.topografix.com/GPX/1/1/gpx.xsd" version="1.1" creator="VisuGPX - https://www.visugpx.com">
  <metadata>
    <name>Pic de bacanère en boucle</name>
    <desc><![CDATA[Pic de bacanère en boucle]]></desc>
  </metadata>
  <trk>
    <name><![CDATA[Randocourse]]></name>
    <trkseg>
      <trkpt lat="42.85614" lon="0.62029">
        <ele>933.57739257812</ele>
        <time>2011-06-14T07:18:10Z</time>
      </trkpt>
      <trkpt lat="42.85615" lon="0.6203">
        <ele>933.0966796875</ele>
        <time>2011-06-14T07:18:11Z</time>
      </trkpt>
      <trkpt lat="42.85619" lon="0.62033">
        <ele>932.6162109375</ele>
        <time>2011-06-14T07:18:16Z</time>
      </trkpt>
      <trkpt lat="42.85625" lon="0.62031">
        <ele>931.17431640625</ele>
        <time>2011-06-14T07:18:21Z</time>
      </trkpt>
      <trkpt lat="42.85632" lon="0.62025">
        <ele>932.13549804688</ele>
        <time>2011-06-14T07:18:27Z</time>
      </trkpt>
      <trkpt lat="42.85639" lon="0.6202">
        <ele>934.05810546875</ele>
        <time>2011-06-14T07:18:33Z</time>
      </trkpt>
      <trkpt lat="42.85646" lon="0.62014">
        <ele>934.05810546875</ele>
        <time>2011-06-14T07:18:39Z</time>
      </trkpt>
      <trkpt lat="42.85652" lon="0.62012">
        <ele>934.53881835938</ele>
        <time>2011-06-14T07:18:43Z</time>
      </trkpt>
      <trkpt lat="42.85661" lon="0.62011">
        <ele>935.5</ele>
        <time>2011-06-14T07:18:51Z</time>
      </trkpt>
      <trkpt lat="42.85667" lon="0.62011">
        <ele>936.46142578125</ele>
        <time>2011-06-14T07:18:56Z</time>
      </trkpt>
      <trkpt lat="42.8567" lon="0.6201">
        <ele>936.94189453125</ele>
        <time>2011-06-14T07:19:00Z</time>
      </trkpt>
      <trkpt lat="42.85683" lon="0.62008">
        <ele>939.82592773438</ele>
        <time>2011-06-14T07:19:09Z</time>
      </trkpt>
      <trkpt lat="42.85691" lon="0.62006">
        <ele>940.30688476562</ele>
        <time>2011-06-14T07:19:16Z</time>
      </trkpt>
      <trkpt lat="42.85699" lon="0.62008">
        <ele>941.74877929688</ele>
        <time>2011-06-14T07:19:22Z</time>
      </trkpt>
      <trkpt lat="42.85704" lon="0.62011">
        <ele>942.71020507812</ele>
        <time>2011-06-14T07:19:27Z</time>
      </trkpt>
      <trkpt lat="42.85711" lon="0.62018">
        <ele>944.63256835938</ele>
        <time>2011-06-14T07:19:35Z</time>
      </trkpt>
      <trkpt lat="42.85717" lon="0.62023">
        <ele>944.63256835938</ele>
        <time>2011-06-14T07:19:42Z</time>
      </trkpt>
      <trkpt lat="42.85727" lon="0.62029">
        <ele>945.11328125</ele>
        <time>2011-06-14T07:19:51Z</time>
      </trkpt>
      <trkpt lat="42.85735" lon="0.62036">
        <ele>947.03588867188</ele>
        <time>2011-06-14T07:19:59Z</time>
      </trkpt>
      <trkpt lat="42.85744" lon="0.62041">
        <ele>950.88110351562</ele>
        <time>2011-06-14T07:20:07Z</time>
      </trkpt>
      <trkpt lat="42.85752" lon="0.62045">
        <ele>952.32299804688</ele>
        <time>2011-06-14T07:20:14Z</time>
      </trkpt>
      <trkpt lat="42.85761" lon="0.62049">
        <ele>951.36181640625</ele>
        <time>2011-06-14T07:20:22Z</time>
      </trkpt>
      <trkpt lat="42.85768" lon="0.62052">
        <ele>950.40063476562</ele>
        <time>2011-06-14T07:20:28Z</time>
      </trkpt>
      <trkpt lat="42.85773" lon="0.62057">
        <ele>952.32299804688</ele>
        <time>2011-06-14T07:20:34Z</time>
      </trkpt>
      <trkpt lat="42.85778" lon="0.62059">
        <ele>953.28442382812</ele>
        <time>2011-06-14T07:20:38Z</time>
      </trkpt>
      <trkpt lat="42.85786" lon="0.62065">
        <ele>955.68774414062</ele>
        <time>2011-06-14T07:20:47Z</time>
      </trkpt>
      <trkpt lat="42.85789" lon="0.62068">
        <ele>956.16845703125</ele>
        <time>2011-06-14T07:20:50Z</time>
      </trkpt>
      <trkpt lat="42.85799" lon="0.62075">
        <ele>956.64916992188</ele>
        <time>2011-06-14T07:21:00Z</time>
      </trkpt>
      <trkpt lat="42.85807" lon="0.62082">
        <ele>957.1298828125</ele>
        <time>2011-06-14T07:21:09Z</time>
      </trkpt>
      <trkpt lat="42.85817" lon="0.6209">
        <ele>959.533203125</ele>
        <time>2011-06-14T07:21:18Z</time>
      </trkpt>
      <trkpt lat="42.85826" lon="0.62094">
        <ele>961.9365234375</ele>
        <time>2011-06-14T07:21:25Z</time>
      </trkpt>
      <trkpt lat="42.85833" lon="0.62096">
        <ele>961.9365234375</ele>
        <time>2011-06-14T07:21:31Z</time>
      </trkpt>
      <trkpt lat="42.85841" lon="0.62094">
        <ele>962.89770507812</ele>
        <time>2011-06-14T07:21:38Z</time>
      </trkpt>
      <trkpt lat="42.8585" lon="0.62092">
        <ele>964.8203125</ele>
        <time>2011-06-14T07:21:46Z</time>
      </trkpt>
      <trkpt lat="42.8586" lon="0.62091">
        <ele>968.18481445312</ele>
        <time>2011-06-14T07:21:55Z</time>
      </trkpt>
      <trkpt lat="42.85867" lon="0.62088">
        <ele>969.626953125</ele>
        <time>2011-06-14T07:22:01Z</time>
      </trkpt>
      <trkpt lat="42.85872" lon="0.62084">
        <ele>970.58813476562</ele>
        <time>2011-06-14T07:22:06Z</time>
      </trkpt>
      <trkpt lat="42.85877" lon="0.6208">
        <ele>972.0302734375</ele>
        <time>2011-06-14T07:22:11Z</time>
      </trkpt>
      <trkpt lat="42.85884" lon="0.62073">
        <ele>974.91430664062</ele>
        <time>2011-06-14T07:22:19Z</time>
      </trkpt>
      <trkpt lat="42.85886" lon="0.6207">
        <ele>975.87548828125</ele>
        <time>2011-06-14T07:22:22Z</time>
      </trkpt>
      <trkpt lat="42.85889" lon="0.62067">
        <ele>976.35620117188</ele>
        <time>2011-06-14T07:22:28Z</time>
      </trkpt>
      <trkpt lat="42.85894" lon="0.62066">
        <ele>977.79809570312</ele>
        <time>2011-06-14T07:22:33Z</time>
      </trkpt>
      <trkpt lat="42.85899" lon="0.62067">
        <ele>978.27880859375</ele>
        <time>2011-06-14T07:22:38Z</time>
      </trkpt>
      <trkpt lat="42.85907" lon="0.62073">
        <ele>979.23999023438</ele>
        <time>2011-06-14T07:22:47Z</time>
      </trkpt>
      <trkpt lat="42.85913" lon="0.62074">
        <ele>980.68212890625</ele>
        <time>2011-06-14T07:22:53Z</time>
      </trkpt>
      <trkpt lat="42.85915" lon="0.62075">
        <ele>981.64331054688</ele>
        <time>2011-06-14T07:22:56Z</time>
      </trkpt>
      <trkpt lat="42.85923" lon="0.62076">
        <ele>983.56591796875</ele>
        <time>2011-06-14T07:23:04Z</time>
      </trkpt>
      <trkpt lat="42.85924" lon="0.62076">
        <ele>983.56591796875</ele>
        <time>2011-06-14T07:23:05Z</time>
      </trkpt>
      <trkpt lat="42.85933" lon="0.62076">
        <ele>985.00805664062</ele>
        <time>2011-06-14T07:23:12Z</time>
      </trkpt>
      <trkpt lat="42.85937" lon="0.62079">
        <ele>985.96923828125</ele>
        <time>2011-06-14T07:23:16Z</time>
      </trkpt>
      <trkpt lat="42.85939" lon="0.62086">
        <ele>986.93041992188</ele>
        <time>2011-06-14T07:23:21Z</time>
      </trkpt>
      <trkpt lat="42.85939" lon="0.62094">
        <ele>988.853515625</ele>
        <time>2011-06-14T07:23:27Z</time>
      </trkpt>
      <trkpt lat="42.85936" lon="0.62095">
        <ele>990.77587890625</ele>
        <time>2011-06-14T07:23:34Z</time>
      </trkpt>
      <trkpt lat="42.85938" lon="0.62096">
        <ele>991.25659179688</ele>
        <time>2011-06-14T07:23:40Z</time>
      </trkpt>
      <trkpt lat="42.85936" lon="0.62102">
        <ele>992.21801757812</ele>
        <time>2011-06-14T07:23:46Z</time>
      </trkpt>
      <trkpt lat="42.85928" lon="0.62106">
        <ele>994.140625</ele>
        <time>2011-06-14T07:23:54Z</time>
      </trkpt>
      <trkpt lat="42.85923" lon="0.62113">
        <ele>995.58251953125</ele>
        <time>2011-06-14T07:24:01Z</time>
      </trkpt>
      <trkpt lat="42.85918" lon="0.62125">
        <ele>997.0244140625</ele>
        <time>2011-06-14T07:24:09Z</time>
      </trkpt>
      <trkpt lat="42.85917" lon="0.62133">
        <ele>997.50512695312</ele>
        <time>2011-06-14T07:24:15Z</time>
      </trkpt>
      <trkpt lat="42.8592" lon="0.62138">
        <ele>998.46630859375</ele>
        <time>2011-06-14T07:24:20Z</time>
      </trkpt>
      <trkpt lat="42.85925" lon="0.62137">
        <ele>999.90844726562</ele>
        <time>2011-06-14T07:24:25Z</time>
      </trkpt>
      <trkpt lat="42.85933" lon="0.62136">
        <ele>1001.3503417969</ele>
        <time>2011-06-14T07:24:32Z</time>
      </trkpt>
      <trkpt lat="42.85939" lon="0.62141">
        <ele>1001.8310546875</ele>
        <time>2011-06-14T07:24:39Z</time>
      </trkpt>
      <trkpt lat="42.85944" lon="0.62148">
        <ele>1002.3115234375</ele>
        <time>2011-06-14T07:24:45Z</time>
      </trkpt>
      <trkpt lat="42.85942" lon="0.62156">
        <ele>1003.7536621094</ele>
        <time>2011-06-14T07:24:51Z</time>
      </trkpt>
      <trkpt lat="42.85937" lon="0.62164">
        <ele>1005.1958007812</ele>
        <time>2011-06-14T07:24:59Z</time>
      </trkpt>
      <trkpt lat="42.85936" lon="0.62166">
        <ele>1005.6765136719</ele>
        <time>2011-06-14T07:25:05Z</time>
      </trkpt>
      <trkpt lat="42.85935" lon="0.6217">
        <ele>1006.1569824219</ele>
        <time>2011-06-14T07:25:08Z</time>
      </trkpt>
      <trkpt lat="42.85934" lon="0.62182">
        <ele>1007.5991210938</ele>
        <time>2011-06-14T07:25:16Z</time>
      </trkpt>
      <trkpt lat="42.85935" lon="0.6219">
        <ele>1009.041015625</ele>
        <time>2011-06-14T07:25:21Z</time>
      </trkpt>
      <trkpt lat="42.85936" lon="0.62204">
        <ele>1010.9636230469</ele>
        <time>2011-06-14T07:25:30Z</time>
      </trkpt>
      <trkpt lat="42.85933" lon="0.62215">
        <ele>1012.8862304688</ele>
        <time>2011-06-14T07:25:37Z</time>
      </trkpt>
      <trkpt lat="42.85931" lon="0.62223">
        <ele>1013.8474121094</ele>
        <time>2011-06-14T07:25:43Z</time>
      </trkpt>
      <trkpt lat="42.85928" lon="0.62231">
        <ele>1014.328125</ele>
        <time>2011-06-14T07:25:49Z</time>
      </trkpt>
      <trkpt lat="42.85923" lon="0.62242">
        <ele>1015.2895507812</ele>
        <time>2011-06-14T07:25:57Z</time>
      </trkpt>
      <trkpt lat="42.85921" lon="0.6225">
        <ele>1015.2895507812</ele>
        <time>2011-06-14T07:26:03Z</time>
      </trkpt>
      <trkpt lat="42.85919" lon="0.62258">
        <ele>1015.7702636719</ele>
        <time>2011-06-14T07:26:09Z</time>
      </trkpt>
      <trkpt lat="42.85919" lon="0.62268">
        <ele>1019.134765625</ele>
        <time>2011-06-14T07:26:16Z</time>
      </trkpt>
      <trkpt lat="42.85918" lon="0.62273">
        <ele>1020.0961914062</ele>
        <time>2011-06-14T07:26:19Z</time>
      </trkpt>
      <trkpt lat="42.85914" lon="0.62281">
        <ele>1022.0187988281</ele>
        <time>2011-06-14T07:26:26Z</time>
      </trkpt>
      <trkpt lat="42.85908" lon="0.62277">
        <ele>1023.4609375</ele>
        <time>2011-06-14T07:26:33Z</time>
      </trkpt>
      <trkpt lat="42.85908" lon="0.62269">
        <ele>1025.8640136719</ele>
        <time>2011-06-14T07:26:38Z</time>
      </trkpt>
      <trkpt lat="42.85907" lon="0.62266">
        <ele>1026.3447265625</ele>
        <time>2011-06-14T07:26:40Z</time>
      </trkpt>
      <trkpt lat="42.85899" lon="0.62263">
        <ele>1027.7866210938</ele>
        <time>2011-06-14T07:26:48Z</time>
      </trkpt>
      <trkpt lat="42.85898" lon="0.62264">
        <ele>1027.7866210938</ele>
        <time>2011-06-14T07:26:49Z</time>
      </trkpt>
      <trkpt lat="42.85897" lon="0.62268">
        <ele>1028.2673339844</ele>
        <time>2011-06-14T07:26:52Z</time>
      </trkpt>
      <trkpt lat="42.85896" lon="0.62279">
        <ele>1028.748046875</ele>
        <time>2011-06-14T07:26:58Z</time>
      </trkpt>
      <trkpt lat="42.85896" lon="0.62281">
        <ele>1028.748046875</ele>
        <time>2011-06-14T07:26:59Z</time>
      </trkpt>
      <trkpt lat="42.85897" lon="0.62294">
        <ele>1029.7092285156</ele>
        <time>2011-06-14T07:27:07Z</time>
      </trkpt>
      <trkpt lat="42.85898" lon="0.62302">
        <ele>1030.6706542969</ele>
        <time>2011-06-14T07:27:12Z</time>
      </trkpt>
      <trkpt lat="42.85899" lon="0.62312">
        <ele>1030.6706542969</ele>
        <time>2011-06-14T07:27:19Z</time>
      </trkpt>
      <trkpt lat="42.85899" lon="0.62319">
        <ele>1030.6706542969</ele>
        <time>2011-06-14T07:27:24Z</time>
      </trkpt>
      <trkpt lat="42.85898" lon="0.62325">
        <ele>1031.1513671875</ele>
        <time>2011-06-14T07:27:28Z</time>
      </trkpt>
      <trkpt lat="42.85899" lon="0.62336">
        <ele>1031.6318359375</ele>
        <time>2011-06-14T07:27:36Z</time>
      </trkpt>
      <trkpt lat="42.85897" lon="0.62342">
        <ele>1031.6318359375</ele>
        <time>2011-06-14T07:27:40Z</time>
      </trkpt>
      <trkpt lat="42.85896" lon="0.62345">
        <ele>1035.4770507812</ele>
        <time>2011-06-14T07:27:43Z</time>
      </trkpt>
      <trkpt lat="42.85896" lon="0.62356">
        <ele>1034.9965820312</ele>
        <time>2011-06-14T07:27:49Z</time>
      </trkpt>
      <trkpt lat="42.85897" lon="0.6237">
        <ele>1035.4770507812</ele>
        <time>2011-06-14T07:27:57Z</time>
      </trkpt>
      <trkpt lat="42.85898" lon="0.62379">
        <ele>1035.4770507812</ele>
        <time>2011-06-14T07:28:02Z</time>
      </trkpt>
      <trkpt lat="42.85898" lon="0.62392">
        <ele>1036.9191894531</ele>
        <time>2011-06-14T07:28:10Z</time>
      </trkpt>
      <trkpt lat="42.85899" lon="0.62402">
        <ele>1038.8420410156</ele>
        <time>2011-06-14T07:28:16Z</time>
      </trkpt>
      <trkpt lat="42.85899" lon="0.62414">
        <ele>1040.2839355469</ele>
        <time>2011-06-14T07:28:23Z</time>
      </trkpt>
      <trkpt lat="42.85902" lon="0.62422">
        <ele>1041.2451171875</ele>
        <time>2011-06-14T07:28:28Z</time>
      </trkpt>
      <trkpt lat="42.85903" lon="0.62431">
        <ele>1043.1677246094</ele>
        <time>2011-06-14T07:28:34Z</time>
      </trkpt>
      <trkpt lat="42.85903" lon="0.62433">
        <ele>1044.1291503906</ele>
        <time>2011-06-14T07:28:36Z</time>
      </trkpt>
      <trkpt lat="42.85897" lon="0.62435">
        <ele>1046.5324707031</ele>
        <time>2011-06-14T07:28:43Z</time>
      </trkpt>
      <trkpt lat="42.85892" lon="0.62432">
        <ele>1046.5324707031</ele>
        <time>2011-06-14T07:28:49Z</time>
      </trkpt>
      <trkpt lat="42.85888" lon="0.62428">
        <ele>1048.4548339844</ele>
        <time>2011-06-14T07:28:55Z</time>
      </trkpt>
      <trkpt lat="42.85883" lon="0.62425">
        <ele>1051.3388671875</ele>
        <time>2011-06-14T07:29:01Z</time>
      </trkpt>
      <trkpt lat="42.85876" lon="0.62422">
        <ele>1053.7424316406</ele>
        <time>2011-06-14T07:29:08Z</time>
      </trkpt>
      <trkpt lat="42.85873" lon="0.62417">
        <ele>1057.5876464844</ele>
        <time>2011-06-14T07:29:14Z</time>
      </trkpt>
      <trkpt lat="42.85872" lon="0.62412">
        <ele>1059.5102539062</ele>
        <time>2011-06-14T07:29:17Z</time>
      </trkpt>
      <trkpt lat="42.85868" lon="0.62401">
        <ele>1062.8747558594</ele>
        <time>2011-06-14T07:29:25Z</time>
      </trkpt>
      <trkpt lat="42.85865" lon="0.62391">
        <ele>1065.7587890625</ele>
        <time>2011-06-14T07:29:32Z</time>
      </trkpt>
      <trkpt lat="42.85863" lon="0.62378">
        <ele>1068.162109375</ele>
        <time>2011-06-14T07:29:40Z</time>
      </trkpt>
      <trkpt lat="42.85863" lon="0.62365">
        <ele>1068.6428222656</ele>
        <time>2011-06-14T07:29:47Z</time>
      </trkpt>
      <trkpt lat="42.85859" lon="0.62354">
        <ele>1069.1235351562</ele>
        <time>2011-06-14T07:29:54Z</time>
      </trkpt>
      <trkpt lat="42.85852" lon="0.6235">
        <ele>1069.6042480469</ele>
        <time>2011-06-14T07:30:01Z</time>
      </trkpt>
      <trkpt lat="42.85845" lon="0.62355">
        <ele>1069.6042480469</ele>
        <time>2011-06-14T07:30:07Z</time>
      </trkpt>
      <trkpt lat="42.85841" lon="0.62362">
        <ele>1069.1235351562</ele>
        <time>2011-06-14T07:30:12Z</time>
      </trkpt>
      <trkpt lat="42.85835" lon="0.62368">
        <ele>1069.6042480469</ele>
        <time>2011-06-14T07:30:17Z</time>
      </trkpt>
      <trkpt lat="42.85828" lon="0.62378">
        <ele>1071.0461425781</ele>
        <time>2011-06-14T07:30:24Z</time>
      </trkpt>
      <trkpt lat="42.85822" lon="0.62387">
        <ele>1071.5266113281</ele>
        <time>2011-06-14T07:30:31Z</time>
      </trkpt>
      <trkpt lat="42.85818" lon="0.62394">
        <ele>1072.0073242188</ele>
        <time>2011-06-14T07:30:36Z</time>
      </trkpt>
      <trkpt lat="42.85813" lon="0.62402">
        <ele>1073.4494628906</ele>
        <time>2011-06-14T07:30:42Z</time>
      </trkpt>
      <trkpt lat="42.85807" lon="0.62414">
        <ele>1074.8913574219</ele>
        <time>2011-06-14T07:30:50Z</time>
      </trkpt>
      <trkpt lat="42.85805" lon="0.62421">
        <ele>1076.3332519531</ele>
        <time>2011-06-14T07:30:55Z</time>
      </trkpt>
      <trkpt lat="42.85803" lon="0.62427">
        <ele>1077.2946777344</ele>
        <time>2011-06-14T07:30:59Z</time>
      </trkpt>
      <trkpt lat="42.85805" lon="0.62439">
        <ele>1079.2170410156</ele>
        <time>2011-06-14T07:31:07Z</time>
      </trkpt>
      <trkpt lat="42.85809" lon="0.62441">
        <ele>1080.1784667969</ele>
        <time>2011-06-14T07:31:12Z</time>
      </trkpt>
      <trkpt lat="42.85816" lon="0.6244">
        <ele>1082.1010742188</ele>
        <time>2011-06-14T07:31:19Z</time>
      </trkpt>
      <trkpt lat="42.85822" lon="0.62439">
        <ele>1084.5046386719</ele>
        <time>2011-06-14T07:31:25Z</time>
      </trkpt>
      <trkpt lat="42.85829" lon="0.62439">
        <ele>1086.9077148438</ele>
        <time>2011-06-14T07:31:32Z</time>
      </trkpt>
      <trkpt lat="42.85838" lon="0.62443">
        <ele>1089.3110351562</ele>
        <time>2011-06-14T07:31:41Z</time>
      </trkpt>
      <trkpt lat="42.85841" lon="0.62446">
        <ele>1089.7917480469</ele>
        <time>2011-06-14T07:31:44Z</time>
      </trkpt>
      <trkpt lat="42.8584" lon="0.62453">
        <ele>1089.7917480469</ele>
        <time>2011-06-14T07:31:48Z</time>
      </trkpt>
      <trkpt lat="42.85835" lon="0.6246">
        <ele>1091.2336425781</ele>
        <time>2011-06-14T07:31:55Z</time>
      </trkpt>
      <trkpt lat="42.85831" lon="0.62462">
        <ele>1092.1950683594</ele>
        <time>2011-06-14T07:31:58Z</time>
      </trkpt>
      <trkpt lat="42.85828" lon="0.62474">
        <ele>1093.6369628906</ele>
        <time>2011-06-14T07:32:06Z</time>
      </trkpt>
      <trkpt lat="42.85829" lon="0.62483">
        <ele>1094.1176757812</ele>
        <time>2011-06-14T07:32:12Z</time>
      </trkpt>
      <trkpt lat="42.85828" lon="0.62494">
        <ele>1095.5595703125</ele>
        <time>2011-06-14T07:32:20Z</time>
      </trkpt>
      <trkpt lat="42.85827" lon="0.625">
        <ele>1096.5209960938</ele>
        <time>2011-06-14T07:32:25Z</time>
      </trkpt>
      <trkpt lat="42.85827" lon="0.62508">
        <ele>1097.0014648438</ele>
        <time>2011-06-14T07:32:30Z</time>
      </trkpt>
      <trkpt lat="42.85826" lon="0.62515">
        <ele>1097.962890625</ele>
        <time>2011-06-14T07:32:35Z</time>
      </trkpt>
      <trkpt lat="42.85826" lon="0.62518">
        <ele>1098.443359375</ele>
        <time>2011-06-14T07:32:37Z</time>
      </trkpt>
      <trkpt lat="42.85826" lon="0.62526">
        <ele>1099.8854980469</ele>
        <time>2011-06-14T07:32:43Z</time>
      </trkpt>
      <trkpt lat="42.85826" lon="0.62531">
        <ele>1100.8469238281</ele>
        <time>2011-06-14T07:32:47Z</time>
      </trkpt>
      <trkpt lat="42.85832" lon="0.62531">
        <ele>1101.8083496094</ele>
        <time>2011-06-14T07:32:52Z</time>
      </trkpt>
      <trkpt lat="42.85839" lon="0.62531">
        <ele>1103.7309570312</ele>
        <time>2011-06-14T07:32:58Z</time>
      </trkpt>
      <trkpt lat="42.85841" lon="0.6254">
        <ele>1104.6921386719</ele>
        <time>2011-06-14T07:33:04Z</time>
      </trkpt>
      <trkpt lat="42.85834" lon="0.62548">
        <ele>1106.1340332031</ele>
        <time>2011-06-14T07:33:12Z</time>
      </trkpt>
      <trkpt lat="42.85831" lon="0.62552">
        <ele>1106.6147460938</ele>
        <time>2011-06-14T07:33:16Z</time>
      </trkpt>
      <trkpt lat="42.85831" lon="0.62555">
        <ele>1106.6147460938</ele>
        <time>2011-06-14T07:33:18Z</time>
      </trkpt>
      <trkpt lat="42.85839" lon="0.62562">
        <ele>1108.5373535156</ele>
        <time>2011-06-14T07:33:26Z</time>
      </trkpt>
      <trkpt lat="42.85842" lon="0.62564">
        <ele>1108.5373535156</ele>
        <time>2011-06-14T07:33:29Z</time>
      </trkpt>
      <trkpt lat="42.85847" lon="0.62569">
        <ele>1110.4599609375</ele>
        <time>2011-06-14T07:33:35Z</time>
      </trkpt>
      <trkpt lat="42.85848" lon="0.62571">
        <ele>1110.4599609375</ele>
        <time>2011-06-14T07:33:36Z</time>
      </trkpt>
      <trkpt lat="42.85848" lon="0.62578">
        <ele>1111.9020996094</ele>
        <time>2011-06-14T07:33:42Z</time>
      </trkpt>
      <trkpt lat="42.85844" lon="0.62587">
        <ele>1113.3439941406</ele>
        <time>2011-06-14T07:33:49Z</time>
      </trkpt>
      <trkpt lat="42.85843" lon="0.62592">
        <ele>1113.8244628906</ele>
        <time>2011-06-14T07:33:52Z</time>
      </trkpt>
      <trkpt lat="42.85839" lon="0.62603">
        <ele>1114.7858886719</ele>
        <time>2011-06-14T07:34:00Z</time>
      </trkpt>
      <trkpt lat="42.85836" lon="0.62611">
        <ele>1115.7473144531</ele>
        <time>2011-06-14T07:34:06Z</time>
      </trkpt>
      <trkpt lat="42.85833" lon="0.62618">
        <ele>1119.5927734375</ele>
        <time>2011-06-14T07:34:12Z</time>
      </trkpt>
      <trkpt lat="42.85832" lon="0.62625">
        <ele>1120.5539550781</ele>
        <time>2011-06-14T07:34:17Z</time>
      </trkpt>
      <trkpt lat="42.85837" lon="0.6263">
        <ele>1122.4765625</ele>
        <time>2011-06-14T07:34:24Z</time>
      </trkpt>
      <trkpt lat="42.85838" lon="0.62631">
        <ele>1122.4765625</ele>
        <time>2011-06-14T07:34:25Z</time>
      </trkpt>
      <trkpt lat="42.85841" lon="0.62631">
        <ele>1123.4379882812</ele>
        <time>2011-06-14T07:34:28Z</time>
      </trkpt>
      <trkpt lat="42.85847" lon="0.6263">
        <ele>1125.3603515625</ele>
        <time>2011-06-14T07:34:34Z</time>
      </trkpt>
      <trkpt lat="42.85858" lon="0.62629">
        <ele>1127.763671875</ele>
        <time>2011-06-14T07:34:43Z</time>
      </trkpt>
      <trkpt lat="42.85863" lon="0.6263">
        <ele>1128.2443847656</ele>
        <time>2011-06-14T07:34:47Z</time>
      </trkpt>
      <trkpt lat="42.85865" lon="0.62632">
        <ele>1128.7250976562</ele>
        <time>2011-06-14T07:34:49Z</time>
      </trkpt>
      <trkpt lat="42.85871" lon="0.62642">
        <ele>1131.1284179688</ele>
        <time>2011-06-14T07:34:57Z</time>
      </trkpt>
      <trkpt lat="42.8587" lon="0.62652">
        <ele>1132.5705566406</ele>
        <time>2011-06-14T07:35:03Z</time>
      </trkpt>
      <trkpt lat="42.85868" lon="0.6266">
        <ele>1134.0124511719</ele>
        <time>2011-06-14T07:35:08Z</time>
      </trkpt>
      <trkpt lat="42.85865" lon="0.62671">
        <ele>1135.4543457031</ele>
        <time>2011-06-14T07:35:15Z</time>
      </trkpt>
      <trkpt lat="42.85862" lon="0.62677">
        <ele>1137.8576660156</ele>
        <time>2011-06-14T07:35:21Z</time>
      </trkpt>
      <trkpt lat="42.85861" lon="0.62683">
        <ele>1138.3383789062</ele>
        <time>2011-06-14T07:35:25Z</time>
      </trkpt>
      <trkpt lat="42.85861" lon="0.62686">
        <ele>1139.2995605469</ele>
        <time>2011-06-14T07:35:27Z</time>
      </trkpt>
      <trkpt lat="42.8586" lon="0.62695">
        <ele>1139.7802734375</ele>
        <time>2011-06-14T07:35:33Z</time>
      </trkpt>
      <trkpt lat="42.85857" lon="0.62705">
        <ele>1140.2609863281</ele>
        <time>2011-06-14T07:35:40Z</time>
      </trkpt>
      <trkpt lat="42.85853" lon="0.6271">
        <ele>1140.2609863281</ele>
        <time>2011-06-14T07:35:45Z</time>
      </trkpt>
      <trkpt lat="42.85852" lon="0.62711">
        <ele>1140.7414550781</ele>
        <time>2011-06-14T07:35:46Z</time>
      </trkpt>
      <trkpt lat="42.85844" lon="0.62717">
        <ele>1142.6643066406</ele>
        <time>2011-06-14T07:35:54Z</time>
      </trkpt>
      <trkpt lat="42.85837" lon="0.62721">
        <ele>1144.1062011719</ele>
        <time>2011-06-14T07:36:01Z</time>
      </trkpt>
      <trkpt lat="42.85836" lon="0.62721">
        <ele>1143.6254882812</ele>
        <time>2011-06-14T07:36:02Z</time>
      </trkpt>
      <trkpt lat="42.8583" lon="0.62722">
        <ele>1141.2221679688</ele>
        <time>2011-06-14T07:36:08Z</time>
      </trkpt>
      <trkpt lat="42.85828" lon="0.62722">
        <ele>1141.2221679688</ele>
        <time>2011-06-14T07:36:10Z</time>
      </trkpt>
      <trkpt lat="42.8582" lon="0.62719">
        <ele>1139.7802734375</ele>
        <time>2011-06-14T07:36:17Z</time>
      </trkpt>
      <trkpt lat="42.85812" lon="0.62715">
        <ele>1144.5866699219</ele>
        <time>2011-06-14T07:36:25Z</time>
      </trkpt>
      <trkpt lat="42.85804" lon="0.62715">
        <ele>1146.9899902344</ele>
        <time>2011-06-14T07:36:32Z</time>
      </trkpt>
      <trkpt lat="42.85796" lon="0.62716">
        <ele>1150.3549804688</ele>
        <time>2011-06-14T07:36:40Z</time>
      </trkpt>
      <trkpt lat="42.85791" lon="0.62719">
        <ele>1153.7194824219</ele>
        <time>2011-06-14T07:36:46Z</time>
      </trkpt>
      <trkpt lat="42.85786" lon="0.62726">
        <ele>1157.083984375</ele>
        <time>2011-06-14T07:36:53Z</time>
      </trkpt>
      <trkpt lat="42.85787" lon="0.62734">
        <ele>1157.5646972656</ele>
        <time>2011-06-14T07:37:01Z</time>
      </trkpt>
      <trkpt lat="42.8579" lon="0.62739">
        <ele>1159.4873046875</ele>
        <time>2011-06-14T07:37:06Z</time>
      </trkpt>
      <trkpt lat="42.85794" lon="0.62748">
        <ele>1160.9291992188</ele>
        <time>2011-06-14T07:37:13Z</time>
      </trkpt>
      <trkpt lat="42.85794" lon="0.62749">
        <ele>1160.9291992188</ele>
        <time>2011-06-14T07:37:14Z</time>
      </trkpt>
      <trkpt lat="42.85796" lon="0.62761">
        <ele>1162.8518066406</ele>
        <time>2011-06-14T07:37:23Z</time>
      </trkpt>
      <trkpt lat="42.85797" lon="0.62765">
        <ele>1163.3325195312</ele>
        <time>2011-06-14T07:37:26Z</time>
      </trkpt>
      <trkpt lat="42.85796" lon="0.62775">
        <ele>1164.7746582031</ele>
        <time>2011-06-14T07:37:34Z</time>
      </trkpt>
      <trkpt lat="42.85793" lon="0.62781">
        <ele>1167.6584472656</ele>
        <time>2011-06-14T07:37:40Z</time>
      </trkpt>
      <trkpt lat="42.85791" lon="0.62786">
        <ele>1168.1391601562</ele>
        <time>2011-06-14T07:37:44Z</time>
      </trkpt>
      <trkpt lat="42.85788" lon="0.62788">
        <ele>1168.1391601562</ele>
        <time>2011-06-14T07:37:47Z</time>
      </trkpt>
      <trkpt lat="42.8578" lon="0.62791">
        <ele>1168.6198730469</ele>
        <time>2011-06-14T07:37:54Z</time>
      </trkpt>
      <trkpt lat="42.85775" lon="0.62793">
        <ele>1169.1005859375</ele>
        <time>2011-06-14T07:37:59Z</time>
      </trkpt>
      <trkpt lat="42.85768" lon="0.6279">
        <ele>1170.0617675781</ele>
        <time>2011-06-14T07:38:06Z</time>
      </trkpt>
      <trkpt lat="42.85764" lon="0.62788">
        <ele>1170.5424804688</ele>
        <time>2011-06-14T07:38:10Z</time>
      </trkpt>
      <trkpt lat="42.85758" lon="0.62787">
        <ele>1171.984375</ele>
        <time>2011-06-14T07:38:16Z</time>
      </trkpt>
      <trkpt lat="42.85756" lon="0.62792">
        <ele>1174.3876953125</ele>
        <time>2011-06-14T07:38:22Z</time>
      </trkpt>
      <trkpt lat="42.85758" lon="0.62798">
        <ele>1175.3488769531</ele>
        <time>2011-06-14T07:38:27Z</time>
      </trkpt>
      <trkpt lat="42.85762" lon="0.62804">
        <ele>1176.791015625</ele>
        <time>2011-06-14T07:38:32Z</time>
      </trkpt>
      <trkpt lat="42.85765" lon="0.62814">
        <ele>1179.6748046875</ele>
        <time>2011-06-14T07:38:39Z</time>
      </trkpt>
      <trkpt lat="42.8577" lon="0.62825">
        <ele>1183.5202636719</ele>
        <time>2011-06-14T07:38:46Z</time>
      </trkpt>
      <trkpt lat="42.8577" lon="0.62835">
        <ele>1183.0395507812</ele>
        <time>2011-06-14T07:38:52Z</time>
      </trkpt>
      <trkpt lat="42.8577" lon="0.62843">
        <ele>1184.9624023438</ele>
        <time>2011-06-14T07:38:57Z</time>
      </trkpt>
      <trkpt lat="42.85772" lon="0.6285">
        <ele>1186.404296875</ele>
        <time>2011-06-14T07:39:02Z</time>
      </trkpt>
      <trkpt lat="42.85773" lon="0.62859">
        <ele>1188.3269042969</ele>
        <time>2011-06-14T07:39:08Z</time>
      </trkpt>
      <trkpt lat="42.85773" lon="0.62863">
        <ele>1188.8076171875</ele>
        <time>2011-06-14T07:39:11Z</time>
      </trkpt>
      <trkpt lat="42.85769" lon="0.6287">
        <ele>1189.7687988281</ele>
        <time>2011-06-14T07:39:16Z</time>
      </trkpt>
      <trkpt lat="42.85761" lon="0.62869">
        <ele>1189.2880859375</ele>
        <time>2011-06-14T07:39:24Z</time>
      </trkpt>
      <trkpt lat="42.85755" lon="0.62866">
        <ele>1189.2880859375</ele>
        <time>2011-06-14T07:39:29Z</time>
      </trkpt>
      <trkpt lat="42.85746" lon="0.62865">
        <ele>1190.2495117188</ele>
        <time>2011-06-14T07:39:37Z</time>
      </trkpt>
      <trkpt lat="42.85742" lon="0.62868">
        <ele>1191.69140625</ele>
        <time>2011-06-14T07:39:43Z</time>
      </trkpt>
      <trkpt lat="42.85736" lon="0.62873">
        <ele>1191.69140625</ele>
        <time>2011-06-14T07:42:47Z</time>
      </trkpt>
      <trkpt lat="42.85739" lon="0.62877">
        <ele>1190.2495117188</ele>
        <time>2011-06-14T07:42:51Z</time>
      </trkpt>
      <trkpt lat="42.85742" lon="0.62882">
        <ele>1189.7687988281</ele>
        <time>2011-06-14T07:42:57Z</time>
      </trkpt>
      <trkpt lat="42.85743" lon="0.62891">
        <ele>1191.69140625</ele>
        <time>2011-06-14T07:43:04Z</time>
      </trkpt>
      <trkpt lat="42.85744" lon="0.62898">
        <ele>1195.0559082031</ele>
        <time>2011-06-14T07:43:09Z</time>
      </trkpt>
      <trkpt lat="42.85745" lon="0.62909">
        <ele>1198.4206542969</ele>
        <time>2011-06-14T07:43:17Z</time>
      </trkpt>
      <trkpt lat="42.85745" lon="0.62918">
        <ele>1199.3820800781</ele>
        <time>2011-06-14T07:43:23Z</time>
      </trkpt>
      <trkpt lat="42.85745" lon="0.62925">
        <ele>1201.3046875</ele>
        <time>2011-06-14T07:43:28Z</time>
      </trkpt>
      <trkpt lat="42.85745" lon="0.62932">
        <ele>1202.2658691406</ele>
        <time>2011-06-14T07:43:32Z</time>
      </trkpt>
      <trkpt lat="42.85747" lon="0.62943">
        <ele>1208.0339355469</ele>
        <time>2011-06-14T07:43:39Z</time>
      </trkpt>
      <trkpt lat="42.85746" lon="0.6295">
        <ele>1210.4370117188</ele>
        <time>2011-06-14T07:43:44Z</time>
      </trkpt>
      <trkpt lat="42.85745" lon="0.62954">
        <ele>1211.3984375</ele>
        <time>2011-06-14T07:43:47Z</time>
      </trkpt>
      <trkpt lat="42.85744" lon="0.62964">
        <ele>1211.3984375</ele>
        <time>2011-06-14T07:43:54Z</time>
      </trkpt>
      <trkpt lat="42.85743" lon="0.62975">
        <ele>1211.3984375</ele>
        <time>2011-06-14T07:44:01Z</time>
      </trkpt>
      <trkpt lat="42.85742" lon="0.62983">
        <ele>1211.8791503906</ele>
        <time>2011-06-14T07:44:06Z</time>
      </trkpt>
      <trkpt lat="42.85742" lon="0.62985">
        <ele>1212.8405761719</ele>
        <time>2011-06-14T07:44:07Z</time>
      </trkpt>
      <trkpt lat="42.85741" lon="0.62995">
        <ele>1213.8017578125</ele>
        <time>2011-06-14T07:44:14Z</time>
      </trkpt>
      <trkpt lat="42.85742" lon="0.62999">
        <ele>1214.2824707031</ele>
        <time>2011-06-14T07:44:17Z</time>
      </trkpt>
      <trkpt lat="42.85742" lon="0.63">
        <ele>1212.8405761719</ele>
        <time>2011-06-14T07:44:26Z</time>
      </trkpt>
      <trkpt lat="42.85741" lon="0.63001">
        <ele>1212.8405761719</ele>
        <time>2011-06-14T07:44:41Z</time>
      </trkpt>
      <trkpt lat="42.8574" lon="0.63008">
        <ele>1212.3598632812</ele>
        <time>2011-06-14T07:44:56Z</time>
      </trkpt>
      <trkpt lat="42.85738" lon="0.63014">
        <ele>1212.8405761719</ele>
        <time>2011-06-14T07:45:01Z</time>
      </trkpt>
      <trkpt lat="42.85737" lon="0.63022">
        <ele>1214.7631835938</ele>
        <time>2011-06-14T07:45:07Z</time>
      </trkpt>
      <trkpt lat="42.85738" lon="0.63028">
        <ele>1219.5698242188</ele>
        <time>2011-06-14T07:45:12Z</time>
      </trkpt>
      <trkpt lat="42.85737" lon="0.63038">
        <ele>1220.0502929688</ele>
        <time>2011-06-14T07:45:18Z</time>
      </trkpt>
      <trkpt lat="42.85736" lon="0.63041">
        <ele>1221.01171875</ele>
        <time>2011-06-14T07:45:21Z</time>
      </trkpt>
      <trkpt lat="42.85735" lon="0.63049">
        <ele>1222.9343261719</ele>
        <time>2011-06-14T07:45:27Z</time>
      </trkpt>
      <trkpt lat="42.85735" lon="0.63059">
        <ele>1223.4150390625</ele>
        <time>2011-06-14T07:45:34Z</time>
      </trkpt>
      <trkpt lat="42.85735" lon="0.63066">
        <ele>1225.8181152344</ele>
        <time>2011-06-14T07:45:40Z</time>
      </trkpt>
      <trkpt lat="42.85734" lon="0.63072">
        <ele>1226.298828125</ele>
        <time>2011-06-14T07:45:45Z</time>
      </trkpt>
      <trkpt lat="42.85733" lon="0.6308">
        <ele>1227.2602539062</ele>
        <time>2011-06-14T07:45:51Z</time>
      </trkpt>
      <trkpt lat="42.8573" lon="0.63084">
        <ele>1229.1828613281</ele>
        <time>2011-06-14T07:45:56Z</time>
      </trkpt>
      <trkpt lat="42.85724" lon="0.63087">
        <ele>1231.1057128906</ele>
        <time>2011-06-14T07:46:03Z</time>
      </trkpt>
      <trkpt lat="42.85718" lon="0.63092">
        <ele>1233.0280761719</ele>
        <time>2011-06-14T07:46:11Z</time>
      </trkpt>
      <trkpt lat="42.85716" lon="0.63098">
        <ele>1233.5087890625</ele>
        <time>2011-06-14T07:46:17Z</time>
      </trkpt>
      <trkpt lat="42.85715" lon="0.63105">
        <ele>1235.912109375</ele>
        <time>2011-06-14T07:46:23Z</time>
      </trkpt>
      <trkpt lat="42.85714" lon="0.63111">
        <ele>1237.3540039062</ele>
        <time>2011-06-14T07:46:29Z</time>
      </trkpt>
      <trkpt lat="42.85715" lon="0.63117">
        <ele>1237.3540039062</ele>
        <time>2011-06-14T07:46:34Z</time>
      </trkpt>
      <trkpt lat="42.85717" lon="0.63124">
        <ele>1238.3154296875</ele>
        <time>2011-06-14T07:46:40Z</time>
      </trkpt>
      <trkpt lat="42.85717" lon="0.6313">
        <ele>1240.2380371094</ele>
        <time>2011-06-14T07:46:45Z</time>
      </trkpt>
      <trkpt lat="42.85717" lon="0.63135">
        <ele>1240.2380371094</ele>
        <time>2011-06-14T07:46:49Z</time>
      </trkpt>
      <trkpt lat="42.85718" lon="0.63141">
        <ele>1241.19921875</ele>
        <time>2011-06-14T07:46:55Z</time>
      </trkpt>
      <trkpt lat="42.85717" lon="0.63148">
        <ele>1242.1606445312</ele>
        <time>2011-06-14T07:47:00Z</time>
      </trkpt>
      <trkpt lat="42.85715" lon="0.63154">
        <ele>1242.1606445312</ele>
        <time>2011-06-14T07:47:05Z</time>
      </trkpt>
      <trkpt lat="42.85715" lon="0.63158">
        <ele>1242.6413574219</ele>
        <time>2011-06-14T07:47:08Z</time>
      </trkpt>
      <trkpt lat="42.85712" lon="0.63165">
        <ele>1246.0061035156</ele>
        <time>2011-06-14T07:47:14Z</time>
      </trkpt>
      <trkpt lat="42.85708" lon="0.63171">
        <ele>1246.9672851562</ele>
        <time>2011-06-14T07:47:20Z</time>
      </trkpt>
      <trkpt lat="42.85704" lon="0.63176">
        <ele>1249.3706054688</ele>
        <time>2011-06-14T07:47:26Z</time>
      </trkpt>
      <trkpt lat="42.85699" lon="0.63181">
        <ele>1251.7739257812</ele>
        <time>2011-06-14T07:47:32Z</time>
      </trkpt>
      <trkpt lat="42.85696" lon="0.63186">
        <ele>1253.2158203125</ele>
        <time>2011-06-14T07:47:38Z</time>
      </trkpt>
      <trkpt lat="42.85691" lon="0.63188">
        <ele>1254.1772460938</ele>
        <time>2011-06-14T07:47:43Z</time>
      </trkpt>
      <trkpt lat="42.85689" lon="0.63189">
        <ele>1254.1772460938</ele>
        <time>2011-06-14T07:47:45Z</time>
      </trkpt>
      <trkpt lat="42.85684" lon="0.6319">
        <ele>1255.1384277344</ele>
        <time>2011-06-14T07:47:49Z</time>
      </trkpt>
      <trkpt lat="42.85677" lon="0.6319">
        <ele>1257.0610351562</ele>
        <time>2011-06-14T07:47:55Z</time>
      </trkpt>
      <trkpt lat="42.85669" lon="0.63192">
        <ele>1257.5417480469</ele>
        <time>2011-06-14T07:48:02Z</time>
      </trkpt>
      <trkpt lat="42.85668" lon="0.63192">
        <ele>1258.0224609375</ele>
        <time>2011-06-14T07:48:07Z</time>
      </trkpt>
      <trkpt lat="42.8566" lon="0.63197">
        <ele>1259.9448242188</ele>
        <time>2011-06-14T07:48:14Z</time>
      </trkpt>
      <trkpt lat="42.85653" lon="0.63203">
        <ele>1261.3872070312</ele>
        <time>2011-06-14T07:48:21Z</time>
      </trkpt>
      <trkpt lat="42.85647" lon="0.6321">
        <ele>1262.8291015625</ele>
        <time>2011-06-14T07:48:28Z</time>
      </trkpt>
      <trkpt lat="42.85641" lon="0.63216">
        <ele>1264.7517089844</ele>
        <time>2011-06-14T07:48:34Z</time>
      </trkpt>
      <trkpt lat="42.85634" lon="0.63226">
        <ele>1266.1936035156</ele>
        <time>2011-06-14T07:48:42Z</time>
      </trkpt>
      <trkpt lat="42.85628" lon="0.63232">
        <ele>1267.1550292969</ele>
        <time>2011-06-14T07:48:49Z</time>
      </trkpt>
      <trkpt lat="42.85622" lon="0.63242">
        <ele>1268.1162109375</ele>
        <time>2011-06-14T07:48:57Z</time>
      </trkpt>
      <trkpt lat="42.85618" lon="0.63247">
        <ele>1268.5969238281</ele>
        <time>2011-06-14T07:49:01Z</time>
      </trkpt>
      <trkpt lat="42.85612" lon="0.63256">
        <ele>1269.5583496094</ele>
        <time>2011-06-14T07:49:08Z</time>
      </trkpt>
      <trkpt lat="42.85604" lon="0.63265">
        <ele>1271.0002441406</ele>
        <time>2011-06-14T07:49:16Z</time>
      </trkpt>
      <trkpt lat="42.85599" lon="0.63271">
        <ele>1271.4807128906</ele>
        <time>2011-06-14T07:49:22Z</time>
      </trkpt>
      <trkpt lat="42.85595" lon="0.63279">
        <ele>1271.9614257812</ele>
        <time>2011-06-14T07:49:28Z</time>
      </trkpt>
      <trkpt lat="42.85592" lon="0.63291">
        <ele>1274.3647460938</ele>
        <time>2011-06-14T07:49:36Z</time>
      </trkpt>
      <trkpt lat="42.85592" lon="0.63299">
        <ele>1276.2875976562</ele>
        <time>2011-06-14T07:49:41Z</time>
      </trkpt>
      <trkpt lat="42.85593" lon="0.63308">
        <ele>1278.2102050781</ele>
        <time>2011-06-14T07:49:47Z</time>
      </trkpt>
      <trkpt lat="42.85595" lon="0.63318">
        <ele>1280.6135253906</ele>
        <time>2011-06-14T07:49:54Z</time>
      </trkpt>
      <trkpt lat="42.85597" lon="0.63325">
        <ele>1281.5747070312</ele>
        <time>2011-06-14T07:49:59Z</time>
      </trkpt>
      <trkpt lat="42.85599" lon="0.6333">
        <ele>1282.0554199219</ele>
        <time>2011-06-14T07:50:03Z</time>
      </trkpt>
      <trkpt lat="42.85602" lon="0.63337">
        <ele>1283.4973144531</ele>
        <time>2011-06-14T07:50:09Z</time>
      </trkpt>
      <trkpt lat="42.85604" lon="0.6334">
        <ele>1283.9780273438</ele>
        <time>2011-06-14T07:50:11Z</time>
      </trkpt>
      <trkpt lat="42.85609" lon="0.6335">
        <ele>1284.4587402344</ele>
        <time>2011-06-14T07:50:19Z</time>
      </trkpt>
      <trkpt lat="42.85613" lon="0.63356">
        <ele>1285.9006347656</ele>
        <time>2011-06-14T07:50:24Z</time>
      </trkpt>
      <trkpt lat="42.8562" lon="0.63363">
        <ele>1286.3813476562</ele>
        <time>2011-06-14T07:50:31Z</time>
      </trkpt>
      <trkpt lat="42.85626" lon="0.63368">
        <ele>1288.3039550781</ele>
        <time>2011-06-14T07:50:37Z</time>
      </trkpt>
      <trkpt lat="42.85633" lon="0.63373">
        <ele>1290.2265625</ele>
        <time>2011-06-14T07:50:43Z</time>
      </trkpt>
      <trkpt lat="42.85641" lon="0.63378">
        <ele>1292.6301269531</ele>
        <time>2011-06-14T07:50:50Z</time>
      </trkpt>
      <trkpt lat="42.85647" lon="0.63382">
        <ele>1293.5913085938</ele>
        <time>2011-06-14T07:50:56Z</time>
      </trkpt>
      <trkpt lat="42.85654" lon="0.63385">
        <ele>1295.033203125</ele>
        <time>2011-06-14T07:51:02Z</time>
      </trkpt>
      <trkpt lat="42.85662" lon="0.63389">
        <ele>1296.4753417969</ele>
        <time>2011-06-14T07:51:09Z</time>
      </trkpt>
      <trkpt lat="42.85672" lon="0.63394">
        <ele>1296.9558105469</ele>
        <time>2011-06-14T07:51:17Z</time>
      </trkpt>
      <trkpt lat="42.85681" lon="0.63399">
        <ele>1297.4365234375</ele>
        <time>2011-06-14T07:51:25Z</time>
      </trkpt>
      <trkpt lat="42.8569" lon="0.63403">
        <ele>1298.3977050781</ele>
        <time>2011-06-14T07:51:33Z</time>
      </trkpt>
      <trkpt lat="42.85698" lon="0.63404">
        <ele>1299.3591308594</ele>
        <time>2011-06-14T07:51:40Z</time>
      </trkpt>
      <trkpt lat="42.85706" lon="0.63404">
        <ele>1300.3205566406</ele>
        <time>2011-06-14T07:51:47Z</time>
      </trkpt>
      <trkpt lat="42.85714" lon="0.63407">
        <ele>1301.2817382812</ele>
        <time>2011-06-14T07:51:54Z</time>
      </trkpt>
      <trkpt lat="42.85724" lon="0.63411">
        <ele>1302.7236328125</ele>
        <time>2011-06-14T07:52:02Z</time>
      </trkpt>
      <trkpt lat="42.8573" lon="0.63415">
        <ele>1303.6850585938</ele>
        <time>2011-06-14T07:52:08Z</time>
      </trkpt>
      <trkpt lat="42.85736" lon="0.6342">
        <ele>1305.6076660156</ele>
        <time>2011-06-14T07:52:14Z</time>
      </trkpt>
      <trkpt lat="42.85742" lon="0.63426">
        <ele>1306.0881347656</ele>
        <time>2011-06-14T07:52:20Z</time>
      </trkpt>
      <trkpt lat="42.85751" lon="0.63433">
        <ele>1307.5302734375</ele>
        <time>2011-06-14T07:52:28Z</time>
      </trkpt>
      <trkpt lat="42.85757" lon="0.63442">
        <ele>1307.5302734375</ele>
        <time>2011-06-14T07:52:35Z</time>
      </trkpt>
      <trkpt lat="42.85765" lon="0.63448">
        <ele>1311.8564453125</ele>
        <time>2011-06-14T07:52:42Z</time>
      </trkpt>
      <trkpt lat="42.85767" lon="0.63449">
        <ele>1312.8176269531</ele>
        <time>2011-06-14T07:52:43Z</time>
      </trkpt>
      <trkpt lat="42.85767" lon="0.6345">
        <ele>1314.740234375</ele>
        <time>2011-06-14T07:52:46Z</time>
      </trkpt>
      <trkpt lat="42.85771" lon="0.63446">
        <ele>1326.7568359375</ele>
        <time>2011-06-14T07:53:20Z</time>
      </trkpt>
      <trkpt lat="42.8577" lon="0.63445">
        <ele>1326.2761230469</ele>
        <time>2011-06-14T07:53:21Z</time>
      </trkpt>
      <trkpt lat="42.85766" lon="0.63443">
        <ele>1324.8342285156</ele>
        <time>2011-06-14T07:53:23Z</time>
      </trkpt>
      <trkpt lat="42.85753" lon="0.63439">
        <ele>1319.546875</ele>
        <time>2011-06-14T07:53:33Z</time>
      </trkpt>
      <trkpt lat="42.85752" lon="0.6344">
        <ele>1318.5854492188</ele>
        <time>2011-06-14T07:53:34Z</time>
      </trkpt>
      <trkpt lat="42.85745" lon="0.63443">
        <ele>1315.2209472656</ele>
        <time>2011-06-14T07:53:41Z</time>
      </trkpt>
      <trkpt lat="42.85738" lon="0.63447">
        <ele>1315.2209472656</ele>
        <time>2011-06-14T07:53:48Z</time>
      </trkpt>
      <trkpt lat="42.85731" lon="0.6345">
        <ele>1315.2209472656</ele>
        <time>2011-06-14T07:53:54Z</time>
      </trkpt>
      <trkpt lat="42.85723" lon="0.63455">
        <ele>1317.1435546875</ele>
        <time>2011-06-14T07:54:02Z</time>
      </trkpt>
      <trkpt lat="42.85713" lon="0.63461">
        <ele>1318.5854492188</ele>
        <time>2011-06-14T07:54:10Z</time>
      </trkpt>
      <trkpt lat="42.85706" lon="0.63466">
        <ele>1319.546875</ele>
        <time>2011-06-14T07:54:16Z</time>
      </trkpt>
      <trkpt lat="42.85698" lon="0.63471">
        <ele>1321.4692382812</ele>
        <time>2011-06-14T07:54:24Z</time>
      </trkpt>
      <trkpt lat="42.8569" lon="0.63475">
        <ele>1322.4306640625</ele>
        <time>2011-06-14T07:54:32Z</time>
      </trkpt>
      <trkpt lat="42.85686" lon="0.63477">
        <ele>1322.9113769531</ele>
        <time>2011-06-14T07:54:38Z</time>
      </trkpt>
      <trkpt lat="42.85682" lon="0.63479">
        <ele>1323.8725585938</ele>
        <time>2011-06-14T07:54:42Z</time>
      </trkpt>
      <trkpt lat="42.85672" lon="0.63486">
        <ele>1325.3146972656</ele>
        <time>2011-06-14T07:54:52Z</time>
      </trkpt>
      <trkpt lat="42.85661" lon="0.63494">
        <ele>1327.2375488281</ele>
        <time>2011-06-14T07:55:02Z</time>
      </trkpt>
      <trkpt lat="42.85653" lon="0.635">
        <ele>1328.6794433594</ele>
        <time>2011-06-14T07:55:10Z</time>
      </trkpt>
      <trkpt lat="42.85647" lon="0.63505">
        <ele>1329.640625</ele>
        <time>2011-06-14T07:55:16Z</time>
      </trkpt>
      <trkpt lat="42.85639" lon="0.6351">
        <ele>1331.0827636719</ele>
        <time>2011-06-14T07:55:23Z</time>
      </trkpt>
      <trkpt lat="42.85632" lon="0.63516">
        <ele>1332.5246582031</ele>
        <time>2011-06-14T07:55:29Z</time>
      </trkpt>
      <trkpt lat="42.8562" lon="0.63524">
        <ele>1333.9665527344</ele>
        <time>2011-06-14T07:55:39Z</time>
      </trkpt>
      <trkpt lat="42.85613" lon="0.63528">
        <ele>1334.447265625</ele>
        <time>2011-06-14T07:55:45Z</time>
      </trkpt>
      <trkpt lat="42.85607" lon="0.63533">
        <ele>1335.4084472656</ele>
        <time>2011-06-14T07:55:51Z</time>
      </trkpt>
      <trkpt lat="42.85598" lon="0.63539">
        <ele>1337.3310546875</ele>
        <time>2011-06-14T07:56:00Z</time>
      </trkpt>
      <trkpt lat="42.8559" lon="0.63543">
        <ele>1338.2924804688</ele>
        <time>2011-06-14T07:56:07Z</time>
      </trkpt>
      <trkpt lat="42.8558" lon="0.63549">
        <ele>1339.734375</ele>
        <time>2011-06-14T07:56:15Z</time>
      </trkpt>
      <trkpt lat="42.85572" lon="0.63554">
        <ele>1341.1765136719</ele>
        <time>2011-06-14T07:56:22Z</time>
      </trkpt>
      <trkpt lat="42.85565" lon="0.63558">
        <ele>1342.6186523438</ele>
        <time>2011-06-14T07:56:28Z</time>
      </trkpt>
      <trkpt lat="42.85558" lon="0.63563">
        <ele>1344.060546875</ele>
        <time>2011-06-14T07:56:34Z</time>
      </trkpt>
      <trkpt lat="42.85551" lon="0.63566">
        <ele>1345.5024414062</ele>
        <time>2011-06-14T07:56:40Z</time>
      </trkpt>
      <trkpt lat="42.85545" lon="0.63569">
        <ele>1346.4638671875</ele>
        <time>2011-06-14T07:56:45Z</time>
      </trkpt>
      <trkpt lat="42.85535" lon="0.63578">
        <ele>1348.3862304688</ele>
        <time>2011-06-14T07:56:54Z</time>
      </trkpt>
      <trkpt lat="42.85529" lon="0.63584">
        <ele>1349.34765625</ele>
        <time>2011-06-14T07:57:00Z</time>
      </trkpt>
      <trkpt lat="42.85523" lon="0.6359">
        <ele>1349.8283691406</ele>
        <time>2011-06-14T07:57:06Z</time>
      </trkpt>
      <trkpt lat="42.85518" lon="0.63598">
        <ele>1351.2702636719</ele>
        <time>2011-06-14T07:57:12Z</time>
      </trkpt>
      <trkpt lat="42.85513" lon="0.63602">
        <ele>1351.7509765625</ele>
        <time>2011-06-14T07:57:16Z</time>
      </trkpt>
      <trkpt lat="42.85506" lon="0.63611">
        <ele>1353.1928710938</ele>
        <time>2011-06-14T07:57:24Z</time>
      </trkpt>
      <trkpt lat="42.85501" lon="0.63617">
        <ele>1354.154296875</ele>
        <time>2011-06-14T07:57:29Z</time>
      </trkpt>
      <trkpt lat="42.85492" lon="0.63629">
        <ele>1356.5576171875</ele>
        <time>2011-06-14T07:57:38Z</time>
      </trkpt>
      <trkpt lat="42.85486" lon="0.63635">
        <ele>1357.9997558594</ele>
        <time>2011-06-14T07:57:44Z</time>
      </trkpt>
      <trkpt lat="42.85481" lon="0.63641">
        <ele>1358.9609375</ele>
        <time>2011-06-14T07:57:49Z</time>
      </trkpt>
      <trkpt lat="42.85479" lon="0.63651">
        <ele>1359.9221191406</ele>
        <time>2011-06-14T07:57:55Z</time>
      </trkpt>
      <trkpt lat="42.85476" lon="0.63663">
        <ele>1360.8835449219</ele>
        <time>2011-06-14T07:58:02Z</time>
      </trkpt>
      <trkpt lat="42.85474" lon="0.63672">
        <ele>1362.3254394531</ele>
        <time>2011-06-14T07:58:07Z</time>
      </trkpt>
      <trkpt lat="42.85473" lon="0.63681">
        <ele>1363.2868652344</ele>
        <time>2011-06-14T07:58:12Z</time>
      </trkpt>
      <trkpt lat="42.85472" lon="0.63693">
        <ele>1364.7287597656</ele>
        <time>2011-06-14T07:58:19Z</time>
      </trkpt>
      <trkpt lat="42.85472" lon="0.63703">
        <ele>1367.1320800781</ele>
        <time>2011-06-14T07:58:25Z</time>
      </trkpt>
      <trkpt lat="42.8547" lon="0.63713">
        <ele>1367.6125488281</ele>
        <time>2011-06-14T07:58:31Z</time>
      </trkpt>
      <trkpt lat="42.85469" lon="0.63722">
        <ele>1369.0546875</ele>
        <time>2011-06-14T07:58:36Z</time>
      </trkpt>
      <trkpt lat="42.85468" lon="0.63723">
        <ele>1369.0546875</ele>
        <time>2011-06-14T07:58:37Z</time>
      </trkpt>
      <trkpt lat="42.85465" lon="0.63738">
        <ele>1369.5354003906</ele>
        <time>2011-06-14T07:58:46Z</time>
      </trkpt>
      <trkpt lat="42.85464" lon="0.63745">
        <ele>1370.0158691406</ele>
        <time>2011-06-14T07:58:50Z</time>
      </trkpt>
      <trkpt lat="42.85461" lon="0.63754">
        <ele>1370.9772949219</ele>
        <time>2011-06-14T07:58:55Z</time>
      </trkpt>
      <trkpt lat="42.85458" lon="0.63768">
        <ele>1371.4577636719</ele>
        <time>2011-06-14T07:59:03Z</time>
      </trkpt>
      <trkpt lat="42.85456" lon="0.63779">
        <ele>1372.9001464844</ele>
        <time>2011-06-14T07:59:09Z</time>
      </trkpt>
      <trkpt lat="42.85455" lon="0.63788">
        <ele>1374.3420410156</ele>
        <time>2011-06-14T07:59:14Z</time>
      </trkpt>
      <trkpt lat="42.85453" lon="0.63798">
        <ele>1374.8227539062</ele>
        <time>2011-06-14T07:59:20Z</time>
      </trkpt>
      <trkpt lat="42.85451" lon="0.63804">
        <ele>1375.3032226562</ele>
        <time>2011-06-14T07:59:24Z</time>
      </trkpt>
      <trkpt lat="42.85447" lon="0.63814">
        <ele>1376.2646484375</ele>
        <time>2011-06-14T07:59:30Z</time>
      </trkpt>
      <trkpt lat="42.85444" lon="0.63823">
        <ele>1377.2260742188</ele>
        <time>2011-06-14T07:59:36Z</time>
      </trkpt>
      <trkpt lat="42.85448" lon="0.63827">
        <ele>1379.6291503906</ele>
        <time>2011-06-14T07:59:42Z</time>
      </trkpt>
      <trkpt lat="42.85455" lon="0.63826">
        <ele>1381.0712890625</ele>
        <time>2011-06-14T07:59:48Z</time>
      </trkpt>
      <trkpt lat="42.85461" lon="0.63824">
        <ele>1382.0324707031</ele>
        <time>2011-06-14T07:59:53Z</time>
      </trkpt>
      <trkpt lat="42.85464" lon="0.63823">
        <ele>1382.5131835938</ele>
        <time>2011-06-14T07:59:56Z</time>
      </trkpt>
      <trkpt lat="42.85472" lon="0.63822">
        <ele>1383.955078125</ele>
        <time>2011-06-14T08:00:03Z</time>
      </trkpt>
      <trkpt lat="42.85478" lon="0.63821">
        <ele>1385.3969726562</ele>
        <time>2011-06-14T08:00:08Z</time>
      </trkpt>
      <trkpt lat="42.85484" lon="0.6382">
        <ele>1386.8388671875</ele>
        <time>2011-06-14T08:00:13Z</time>
      </trkpt>
      <trkpt lat="42.85491" lon="0.63822">
        <ele>1388.28125</ele>
        <time>2011-06-14T08:00:19Z</time>
      </trkpt>
      <trkpt lat="42.85498" lon="0.63822">
        <ele>1390.2038574219</ele>
        <time>2011-06-14T08:00:25Z</time>
      </trkpt>
      <trkpt lat="42.85505" lon="0.63823">
        <ele>1391.6457519531</ele>
        <time>2011-06-14T08:00:31Z</time>
      </trkpt>
      <trkpt lat="42.85513" lon="0.63826">
        <ele>1393.0876464844</ele>
        <time>2011-06-14T08:00:38Z</time>
      </trkpt>
      <trkpt lat="42.85522" lon="0.6383">
        <ele>1395.0102539062</ele>
        <time>2011-06-14T08:00:46Z</time>
      </trkpt>
      <trkpt lat="42.85529" lon="0.63833">
        <ele>1396.9328613281</ele>
        <time>2011-06-14T08:00:52Z</time>
      </trkpt>
      <trkpt lat="42.85535" lon="0.63836">
        <ele>1397.8942871094</ele>
        <time>2011-06-14T08:00:58Z</time>
      </trkpt>
      <trkpt lat="42.85543" lon="0.63841">
        <ele>1399.8168945312</ele>
        <time>2011-06-14T08:01:05Z</time>
      </trkpt>
      <trkpt lat="42.85553" lon="0.63847">
        <ele>1401.2587890625</ele>
        <time>2011-06-14T08:01:14Z</time>
      </trkpt>
      <trkpt lat="42.85559" lon="0.63852">
        <ele>1402.2199707031</ele>
        <time>2011-06-14T08:01:20Z</time>
      </trkpt>
      <trkpt lat="42.85566" lon="0.63859">
        <ele>1404.1430664062</ele>
        <time>2011-06-14T08:01:28Z</time>
      </trkpt>
      <trkpt lat="42.85572" lon="0.63864">
        <ele>1405.5849609375</ele>
        <time>2011-06-14T08:01:34Z</time>
      </trkpt>
      <trkpt lat="42.85573" lon="0.63865">
        <ele>1405.5849609375</ele>
        <time>2011-06-14T08:01:35Z</time>
      </trkpt>
      <trkpt lat="42.85577" lon="0.63869">
        <ele>1406.5461425781</ele>
        <time>2011-06-14T08:01:39Z</time>
      </trkpt>
      <trkpt lat="42.85583" lon="0.63877">
        <ele>1407.98828125</ele>
        <time>2011-06-14T08:01:46Z</time>
      </trkpt>
      <trkpt lat="42.8559" lon="0.63884">
        <ele>1409.9106445312</ele>
        <time>2011-06-14T08:01:53Z</time>
      </trkpt>
      <trkpt lat="42.85595" lon="0.63892">
        <ele>1410.8720703125</ele>
        <time>2011-06-14T08:02:00Z</time>
      </trkpt>
      <trkpt lat="42.85602" lon="0.63899">
        <ele>1411.8334960938</ele>
        <time>2011-06-14T08:02:07Z</time>
      </trkpt>
      <trkpt lat="42.85608" lon="0.63905">
        <ele>1413.755859375</ele>
        <time>2011-06-14T08:02:13Z</time>
      </trkpt>
      <trkpt lat="42.85616" lon="0.63915">
        <ele>1415.6787109375</ele>
        <time>2011-06-14T08:02:22Z</time>
      </trkpt>
      <trkpt lat="42.85619" lon="0.63921">
        <ele>1416.6398925781</ele>
        <time>2011-06-14T08:02:27Z</time>
      </trkpt>
      <trkpt lat="42.85621" lon="0.63925">
        <ele>1416.6398925781</ele>
        <time>2011-06-14T08:02:30Z</time>
      </trkpt>
      <trkpt lat="42.85624" lon="0.63935">
        <ele>1416.6398925781</ele>
        <time>2011-06-14T08:02:36Z</time>
      </trkpt>
      <trkpt lat="42.85627" lon="0.63947">
        <ele>1416.6398925781</ele>
        <time>2011-06-14T08:02:43Z</time>
      </trkpt>
      <trkpt lat="42.85629" lon="0.6395">
        <ele>1416.6398925781</ele>
        <time>2011-06-14T08:02:45Z</time>
      </trkpt>
      <trkpt lat="42.8563" lon="0.63954">
        <ele>1416.1591796875</ele>
        <time>2011-06-14T08:02:47Z</time>
      </trkpt>
      <trkpt lat="42.85633" lon="0.63963">
        <ele>1415.6787109375</ele>
        <time>2011-06-14T08:02:53Z</time>
      </trkpt>
      <trkpt lat="42.85633" lon="0.63965">
        <ele>1416.1591796875</ele>
        <time>2011-06-14T08:02:54Z</time>
      </trkpt>
      <trkpt lat="42.85635" lon="0.6397">
        <ele>1416.1591796875</ele>
        <time>2011-06-14T08:02:57Z</time>
      </trkpt>
      <trkpt lat="42.85637" lon="0.6398">
        <ele>1416.6398925781</ele>
        <time>2011-06-14T08:03:03Z</time>
      </trkpt>
      <trkpt lat="42.85642" lon="0.63988">
        <ele>1417.6010742188</ele>
        <time>2011-06-14T08:03:09Z</time>
      </trkpt>
      <trkpt lat="42.85643" lon="0.63989">
        <ele>1417.6010742188</ele>
        <time>2011-06-14T08:03:10Z</time>
      </trkpt>
      <trkpt lat="42.85643" lon="0.63992">
        <ele>1416.6398925781</ele>
        <time>2011-06-14T08:03:12Z</time>
      </trkpt>
      <trkpt lat="42.85644" lon="0.64002">
        <ele>1417.6010742188</ele>
        <time>2011-06-14T08:03:18Z</time>
      </trkpt>
      <trkpt lat="42.85647" lon="0.6401">
        <ele>1417.1206054688</ele>
        <time>2011-06-14T08:03:23Z</time>
      </trkpt>
      <trkpt lat="42.8565" lon="0.6402">
        <ele>1416.6398925781</ele>
        <time>2011-06-14T08:03:29Z</time>
      </trkpt>
      <trkpt lat="42.8565" lon="0.64028">
        <ele>1414.2365722656</ele>
        <time>2011-06-14T08:03:33Z</time>
      </trkpt>
      <trkpt lat="42.85653" lon="0.64037">
        <ele>1411.3527832031</ele>
        <time>2011-06-14T08:03:39Z</time>
      </trkpt>
      <trkpt lat="42.85655" lon="0.64048">
        <ele>1409.9106445312</ele>
        <time>2011-06-14T08:03:46Z</time>
      </trkpt>
      <trkpt lat="42.85656" lon="0.64058">
        <ele>1409.9106445312</ele>
        <time>2011-06-14T08:03:52Z</time>
      </trkpt>
      <trkpt lat="42.8566" lon="0.64067">
        <ele>1413.275390625</ele>
        <time>2011-06-14T08:03:57Z</time>
      </trkpt>
      <trkpt lat="42.85662" lon="0.64072">
        <ele>1415.6787109375</ele>
        <time>2011-06-14T08:04:00Z</time>
      </trkpt>
      <trkpt lat="42.85664" lon="0.64081">
        <ele>1416.6398925781</ele>
        <time>2011-06-14T08:04:06Z</time>
      </trkpt>
      <trkpt lat="42.85667" lon="0.64088">
        <ele>1416.6398925781</ele>
        <time>2011-06-14T08:04:10Z</time>
      </trkpt>
      <trkpt lat="42.85668" lon="0.64097">
        <ele>1417.6010742188</ele>
        <time>2011-06-14T08:04:15Z</time>
      </trkpt>
      <trkpt lat="42.85672" lon="0.64111">
        <ele>1421.9272460938</ele>
        <time>2011-06-14T08:04:22Z</time>
      </trkpt>
      <trkpt lat="42.85673" lon="0.64112">
        <ele>1422.4079589844</ele>
        <time>2011-06-14T08:04:23Z</time>
      </trkpt>
      <trkpt lat="42.85676" lon="0.64125">
        <ele>1426.7338867188</ele>
        <time>2011-06-14T08:04:30Z</time>
      </trkpt>
      <trkpt lat="42.85677" lon="0.6413">
        <ele>1428.17578125</ele>
        <time>2011-06-14T08:04:33Z</time>
      </trkpt>
      <trkpt lat="42.8568" lon="0.6414">
        <ele>1431.0598144531</ele>
        <time>2011-06-14T08:04:39Z</time>
      </trkpt>
      <trkpt lat="42.85682" lon="0.64148">
        <ele>1432.9821777344</ele>
        <time>2011-06-14T08:04:44Z</time>
      </trkpt>
      <trkpt lat="42.85684" lon="0.64157">
        <ele>1435.3854980469</ele>
        <time>2011-06-14T08:04:49Z</time>
      </trkpt>
      <trkpt lat="42.85685" lon="0.64166">
        <ele>1439.2309570312</ele>
        <time>2011-06-14T08:04:55Z</time>
      </trkpt>
      <trkpt lat="42.85687" lon="0.64176">
        <ele>1441.6342773438</ele>
        <time>2011-06-14T08:05:02Z</time>
      </trkpt>
      <trkpt lat="42.85689" lon="0.64185">
        <ele>1442.1149902344</ele>
        <time>2011-06-14T08:05:07Z</time>
      </trkpt>
      <trkpt lat="42.85691" lon="0.64195">
        <ele>1442.1149902344</ele>
        <time>2011-06-14T08:05:13Z</time>
      </trkpt>
      <trkpt lat="42.85691" lon="0.64198">
        <ele>1442.595703125</ele>
        <time>2011-06-14T08:05:15Z</time>
      </trkpt>
      <trkpt lat="42.85692" lon="0.64209">
        <ele>1443.076171875</ele>
        <time>2011-06-14T08:05:22Z</time>
      </trkpt>
      <trkpt lat="42.85691" lon="0.64217">
        <ele>1443.5568847656</ele>
        <time>2011-06-14T08:05:27Z</time>
      </trkpt>
      <trkpt lat="42.85691" lon="0.64225">
        <ele>1444.5180664062</ele>
        <time>2011-06-14T08:05:32Z</time>
      </trkpt>
      <trkpt lat="42.85691" lon="0.64227">
        <ele>1444.5180664062</ele>
        <time>2011-06-14T08:05:33Z</time>
      </trkpt>
      <trkpt lat="42.85692" lon="0.64236">
        <ele>1447.4020996094</ele>
        <time>2011-06-14T08:05:39Z</time>
      </trkpt>
      <trkpt lat="42.85693" lon="0.64248">
        <ele>1448.36328125</ele>
        <time>2011-06-14T08:05:46Z</time>
      </trkpt>
      <trkpt lat="42.85694" lon="0.64254">
        <ele>1449.3247070312</ele>
        <time>2011-06-14T08:05:50Z</time>
      </trkpt>
      <trkpt lat="42.85696" lon="0.64262">
        <ele>1450.7666015625</ele>
        <time>2011-06-14T08:05:55Z</time>
      </trkpt>
      <trkpt lat="42.85696" lon="0.64266">
        <ele>1450.7666015625</ele>
        <time>2011-06-14T08:05:57Z</time>
      </trkpt>
      <trkpt lat="42.85698" lon="0.64279">
        <ele>1453.6508789062</ele>
        <time>2011-06-14T08:06:05Z</time>
      </trkpt>
      <trkpt lat="42.857" lon="0.64292">
        <ele>1456.0539550781</ele>
        <time>2011-06-14T08:06:13Z</time>
      </trkpt>
      <trkpt lat="42.85701" lon="0.643">
        <ele>1457.49609375</ele>
        <time>2011-06-14T08:06:18Z</time>
      </trkpt>
      <trkpt lat="42.85701" lon="0.64304">
        <ele>1458.4572753906</ele>
        <time>2011-06-14T08:06:20Z</time>
      </trkpt>
      <trkpt lat="42.85702" lon="0.64312">
        <ele>1459.4187011719</ele>
        <time>2011-06-14T08:06:25Z</time>
      </trkpt>
      <trkpt lat="42.85703" lon="0.6432">
        <ele>1460.8605957031</ele>
        <time>2011-06-14T08:06:30Z</time>
      </trkpt>
      <trkpt lat="42.85705" lon="0.64331">
        <ele>1463.2639160156</ele>
        <time>2011-06-14T08:06:37Z</time>
      </trkpt>
      <trkpt lat="42.85706" lon="0.64335">
        <ele>1463.2639160156</ele>
        <time>2011-06-14T08:06:39Z</time>
      </trkpt>
      <trkpt lat="42.85707" lon="0.64344">
        <ele>1465.1865234375</ele>
        <time>2011-06-14T08:06:45Z</time>
      </trkpt>
      <trkpt lat="42.85708" lon="0.64352">
        <ele>1466.6284179688</ele>
        <time>2011-06-14T08:06:50Z</time>
      </trkpt>
      <trkpt lat="42.85709" lon="0.64365">
        <ele>1466.1477050781</ele>
        <time>2011-06-14T08:06:57Z</time>
      </trkpt>
      <trkpt lat="42.85711" lon="0.64374">
        <ele>1467.5895996094</ele>
        <time>2011-06-14T08:07:03Z</time>
      </trkpt>
      <trkpt lat="42.85714" lon="0.64383">
        <ele>1469.0319824219</ele>
        <time>2011-06-14T08:07:08Z</time>
      </trkpt>
      <trkpt lat="42.85714" lon="0.64385">
        <ele>1469.5126953125</ele>
        <time>2011-06-14T08:07:09Z</time>
      </trkpt>
      <trkpt lat="42.85717" lon="0.64391">
        <ele>1471.4350585938</ele>
        <time>2011-06-14T08:07:14Z</time>
      </trkpt>
      <trkpt lat="42.85719" lon="0.64401">
        <ele>1469.5126953125</ele>
        <time>2011-06-14T08:07:20Z</time>
      </trkpt>
      <trkpt lat="42.85719" lon="0.64414">
        <ele>1467.5895996094</ele>
        <time>2011-06-14T08:07:28Z</time>
      </trkpt>
      <trkpt lat="42.85722" lon="0.64424">
        <ele>1472.396484375</ele>
        <time>2011-06-14T08:07:35Z</time>
      </trkpt>
      <trkpt lat="42.85724" lon="0.6443">
        <ele>1474.3190917969</ele>
        <time>2011-06-14T08:07:39Z</time>
      </trkpt>
      <trkpt lat="42.85723" lon="0.64441">
        <ele>1475.2802734375</ele>
        <time>2011-06-14T08:07:45Z</time>
      </trkpt>
      <trkpt lat="42.85723" lon="0.64453">
        <ele>1475.2802734375</ele>
        <time>2011-06-14T08:07:52Z</time>
      </trkpt>
      <trkpt lat="42.85723" lon="0.64455">
        <ele>1475.7609863281</ele>
        <time>2011-06-14T08:07:53Z</time>
      </trkpt>
      <trkpt lat="42.85723" lon="0.6446">
        <ele>1476.2416992188</ele>
        <time>2011-06-14T08:07:56Z</time>
      </trkpt>
      <trkpt lat="42.85723" lon="0.64472">
        <ele>1476.2416992188</ele>
        <time>2011-06-14T08:08:03Z</time>
      </trkpt>
      <trkpt lat="42.85724" lon="0.64478">
        <ele>1477.68359375</ele>
        <time>2011-06-14T08:08:07Z</time>
      </trkpt>
      <trkpt lat="42.85724" lon="0.64481">
        <ele>1478.1643066406</ele>
        <time>2011-06-14T08:08:09Z</time>
      </trkpt>
      <trkpt lat="42.85725" lon="0.64491">
        <ele>1477.68359375</ele>
        <time>2011-06-14T08:08:15Z</time>
      </trkpt>
      <trkpt lat="42.85725" lon="0.64494">
        <ele>1478.1643066406</ele>
        <time>2011-06-14T08:08:17Z</time>
      </trkpt>
      <trkpt lat="42.85727" lon="0.64512">
        <ele>1483.4514160156</ele>
        <time>2011-06-14T08:08:28Z</time>
      </trkpt>
      <trkpt lat="42.85728" lon="0.64521">
        <ele>1488.7390136719</ele>
        <time>2011-06-14T08:08:34Z</time>
      </trkpt>
      <trkpt lat="42.85729" lon="0.64528">
        <ele>1487.296875</ele>
        <time>2011-06-14T08:08:37Z</time>
      </trkpt>
      <trkpt lat="42.8573" lon="0.64541">
        <ele>1488.2583007812</ele>
        <time>2011-06-14T08:08:45Z</time>
      </trkpt>
      <trkpt lat="42.8573" lon="0.64546">
        <ele>1496.9099121094</ele>
        <time>2011-06-14T08:08:50Z</time>
      </trkpt>
      <trkpt lat="42.85729" lon="0.64554">
        <ele>1500.2749023438</ele>
        <time>2011-06-14T08:08:56Z</time>
      </trkpt>
      <trkpt lat="42.8573" lon="0.6456">
        <ele>1501.716796875</ele>
        <time>2011-06-14T08:08:59Z</time>
      </trkpt>
      <trkpt lat="42.85728" lon="0.64576">
        <ele>1501.2360839844</ele>
        <time>2011-06-14T08:09:07Z</time>
      </trkpt>
      <trkpt lat="42.85727" lon="0.64591">
        <ele>1502.197265625</ele>
        <time>2011-06-14T08:09:15Z</time>
      </trkpt>
      <trkpt lat="42.85727" lon="0.64601">
        <ele>1506.0424804688</ele>
        <time>2011-06-14T08:09:20Z</time>
      </trkpt>
      <trkpt lat="42.85725" lon="0.6461">
        <ele>1506.0424804688</ele>
        <time>2011-06-14T08:09:25Z</time>
      </trkpt>
      <trkpt lat="42.85722" lon="0.6462">
        <ele>1506.5231933594</ele>
        <time>2011-06-14T08:09:32Z</time>
      </trkpt>
      <trkpt lat="42.85722" lon="0.64622">
        <ele>1507.00390625</ele>
        <time>2011-06-14T08:09:33Z</time>
      </trkpt>
      <trkpt lat="42.85721" lon="0.64629">
        <ele>1507.9653320312</ele>
        <time>2011-06-14T08:09:37Z</time>
      </trkpt>
      <trkpt lat="42.8572" lon="0.64639">
        <ele>1506.0424804688</ele>
        <time>2011-06-14T08:09:43Z</time>
      </trkpt>
      <trkpt lat="42.8572" lon="0.64643">
        <ele>1505.0812988281</ele>
        <time>2011-06-14T08:09:45Z</time>
      </trkpt>
      <trkpt lat="42.85717" lon="0.64657">
        <ele>1503.1586914062</ele>
        <time>2011-06-14T08:09:52Z</time>
      </trkpt>
      <trkpt lat="42.85718" lon="0.64672">
        <ele>1508.4458007812</ele>
        <time>2011-06-14T08:09:59Z</time>
      </trkpt>
      <trkpt lat="42.85717" lon="0.64684">
        <ele>1507.9653320312</ele>
        <time>2011-06-14T08:10:05Z</time>
      </trkpt>
      <trkpt lat="42.85717" lon="0.64686">
        <ele>1507.9653320312</ele>
        <time>2011-06-14T08:10:06Z</time>
      </trkpt>
      <trkpt lat="42.85716" lon="0.64694">
        <ele>1507.00390625</ele>
        <time>2011-06-14T08:10:10Z</time>
      </trkpt>
      <trkpt lat="42.85715" lon="0.64708">
        <ele>1506.5231933594</ele>
        <time>2011-06-14T08:10:17Z</time>
      </trkpt>
      <trkpt lat="42.85714" lon="0.64717">
        <ele>1507.4846191406</ele>
        <time>2011-06-14T08:10:22Z</time>
      </trkpt>
      <trkpt lat="42.85714" lon="0.64719">
        <ele>1508.4458007812</ele>
        <time>2011-06-14T08:10:23Z</time>
      </trkpt>
      <trkpt lat="42.85712" lon="0.64729">
        <ele>1512.291015625</ele>
        <time>2011-06-14T08:10:28Z</time>
      </trkpt>
      <trkpt lat="42.85712" lon="0.64739">
        <ele>1513.2524414062</ele>
        <time>2011-06-14T08:10:33Z</time>
      </trkpt>
      <trkpt lat="42.8571" lon="0.64754">
        <ele>1515.1750488281</ele>
        <time>2011-06-14T08:10:40Z</time>
      </trkpt>
      <trkpt lat="42.85709" lon="0.64764">
        <ele>1517.0979003906</ele>
        <time>2011-06-14T08:10:45Z</time>
      </trkpt>
      <trkpt lat="42.85706" lon="0.64776">
        <ele>1516.6171875</ele>
        <time>2011-06-14T08:10:52Z</time>
      </trkpt>
      <trkpt lat="42.85703" lon="0.64786">
        <ele>1516.1364746094</ele>
        <time>2011-06-14T08:10:59Z</time>
      </trkpt>
      <trkpt lat="42.85701" lon="0.64795">
        <ele>1517.5783691406</ele>
        <time>2011-06-14T08:11:05Z</time>
      </trkpt>
      <trkpt lat="42.857" lon="0.64802">
        <ele>1518.0590820312</ele>
        <time>2011-06-14T08:11:09Z</time>
      </trkpt>
      <trkpt lat="42.85699" lon="0.64808">
        <ele>1519.5012207031</ele>
        <time>2011-06-14T08:11:13Z</time>
      </trkpt>
      <trkpt lat="42.85698" lon="0.64817">
        <ele>1520.4624023438</ele>
        <time>2011-06-14T08:11:19Z</time>
      </trkpt>
      <trkpt lat="42.85697" lon="0.64821">
        <ele>1521.904296875</ele>
        <time>2011-06-14T08:11:22Z</time>
      </trkpt>
      <trkpt lat="42.85695" lon="0.64832">
        <ele>1522.8657226562</ele>
        <time>2011-06-14T08:11:28Z</time>
      </trkpt>
      <trkpt lat="42.85693" lon="0.6484">
        <ele>1521.904296875</ele>
        <time>2011-06-14T08:11:33Z</time>
      </trkpt>
      <trkpt lat="42.85691" lon="0.64846">
        <ele>1523.3464355469</ele>
        <time>2011-06-14T08:11:37Z</time>
      </trkpt>
      <trkpt lat="42.85691" lon="0.64858">
        <ele>1525.7495117188</ele>
        <time>2011-06-14T08:11:43Z</time>
      </trkpt>
      <trkpt lat="42.85689" lon="0.64867">
        <ele>1527.1916503906</ele>
        <time>2011-06-14T08:11:49Z</time>
      </trkpt>
      <trkpt lat="42.85689" lon="0.64869">
        <ele>1527.1916503906</ele>
        <time>2011-06-14T08:11:50Z</time>
      </trkpt>
      <trkpt lat="42.85689" lon="0.64875">
        <ele>1526.2302246094</ele>
        <time>2011-06-14T08:11:54Z</time>
      </trkpt>
      <trkpt lat="42.85689" lon="0.64883">
        <ele>1525.7495117188</ele>
        <time>2011-06-14T08:11:58Z</time>
      </trkpt>
      <trkpt lat="42.85688" lon="0.64897">
        <ele>1527.1916503906</ele>
        <time>2011-06-14T08:12:05Z</time>
      </trkpt>
      <trkpt lat="42.85688" lon="0.64905">
        <ele>1528.1528320312</ele>
        <time>2011-06-14T08:12:09Z</time>
      </trkpt>
      <trkpt lat="42.85688" lon="0.64917">
        <ele>1530.0754394531</ele>
        <time>2011-06-14T08:12:15Z</time>
      </trkpt>
      <trkpt lat="42.8569" lon="0.64923">
        <ele>1533.4401855469</ele>
        <time>2011-06-14T08:12:18Z</time>
      </trkpt>
      <trkpt lat="42.85688" lon="0.64937">
        <ele>1534.8823242188</ele>
        <time>2011-06-14T08:12:26Z</time>
      </trkpt>
      <trkpt lat="42.85688" lon="0.64946">
        <ele>1535.8435058594</ele>
        <time>2011-06-14T08:12:31Z</time>
      </trkpt>
      <trkpt lat="42.85687" lon="0.64955">
        <ele>1533.9208984375</ele>
        <time>2011-06-14T08:12:36Z</time>
      </trkpt>
      <trkpt lat="42.85686" lon="0.64964">
        <ele>1532.4790039062</ele>
        <time>2011-06-14T08:12:41Z</time>
      </trkpt>
      <trkpt lat="42.85686" lon="0.64973">
        <ele>1532.9594726562</ele>
        <time>2011-06-14T08:12:46Z</time>
      </trkpt>
      <trkpt lat="42.85686" lon="0.64983">
        <ele>1532.9594726562</ele>
        <time>2011-06-14T08:12:52Z</time>
      </trkpt>
      <trkpt lat="42.85686" lon="0.64985">
        <ele>1532.9594726562</ele>
        <time>2011-06-14T08:12:53Z</time>
      </trkpt>
      <trkpt lat="42.85685" lon="0.64994">
        <ele>1533.9208984375</ele>
        <time>2011-06-14T08:12:59Z</time>
      </trkpt>
      <trkpt lat="42.85685" lon="0.65007">
        <ele>1534.4016113281</ele>
        <time>2011-06-14T08:13:07Z</time>
      </trkpt>
      <trkpt lat="42.85686" lon="0.65021">
        <ele>1534.8823242188</ele>
        <time>2011-06-14T08:13:15Z</time>
      </trkpt>
      <trkpt lat="42.85687" lon="0.65031">
        <ele>1535.3627929688</ele>
        <time>2011-06-14T08:13:21Z</time>
      </trkpt>
      <trkpt lat="42.85688" lon="0.65039">
        <ele>1535.8435058594</ele>
        <time>2011-06-14T08:13:26Z</time>
      </trkpt>
      <trkpt lat="42.8569" lon="0.65049">
        <ele>1535.8435058594</ele>
        <time>2011-06-14T08:13:32Z</time>
      </trkpt>
      <trkpt lat="42.85693" lon="0.65064">
        <ele>1536.8046875</ele>
        <time>2011-06-14T08:13:41Z</time>
      </trkpt>
      <trkpt lat="42.85686" lon="0.65066">
        <ele>1537.2854003906</ele>
        <time>2011-06-14T08:13:48Z</time>
      </trkpt>
      <trkpt lat="42.85682" lon="0.65062">
        <ele>1537.2854003906</ele>
        <time>2011-06-14T08:13:52Z</time>
      </trkpt>
      <trkpt lat="42.85685" lon="0.65063">
        <ele>1538.2468261719</ele>
        <time>2011-06-14T08:13:57Z</time>
      </trkpt>
      <trkpt lat="42.85688" lon="0.65069">
        <ele>1538.2468261719</ele>
        <time>2011-06-14T08:14:01Z</time>
      </trkpt>
      <trkpt lat="42.85694" lon="0.65087">
        <ele>1540.6499023438</ele>
        <time>2011-06-14T08:14:12Z</time>
      </trkpt>
      <trkpt lat="42.85697" lon="0.65101">
        <ele>1541.611328125</ele>
        <time>2011-06-14T08:14:21Z</time>
      </trkpt>
      <trkpt lat="42.85698" lon="0.65109">
        <ele>1541.611328125</ele>
        <time>2011-06-14T08:14:26Z</time>
      </trkpt>
      <trkpt lat="42.85699" lon="0.65121">
        <ele>1543.0532226562</ele>
        <time>2011-06-14T08:14:33Z</time>
      </trkpt>
      <trkpt lat="42.857" lon="0.65131">
        <ele>1544.0146484375</ele>
        <time>2011-06-14T08:14:40Z</time>
      </trkpt>
      <trkpt lat="42.857" lon="0.65137">
        <ele>1545.4565429688</ele>
        <time>2011-06-14T08:14:44Z</time>
      </trkpt>
      <trkpt lat="42.85701" lon="0.65149">
        <ele>1546.8984375</ele>
        <time>2011-06-14T08:14:52Z</time>
      </trkpt>
      <trkpt lat="42.85701" lon="0.65157">
        <ele>1548.3405761719</ele>
        <time>2011-06-14T08:14:57Z</time>
      </trkpt>
      <trkpt lat="42.857" lon="0.65167">
        <ele>1549.3020019531</ele>
        <time>2011-06-14T08:15:03Z</time>
      </trkpt>
      <trkpt lat="42.857" lon="0.65174">
        <ele>1551.224609375</ele>
        <time>2011-06-14T08:15:08Z</time>
      </trkpt>
      <trkpt lat="42.85701" lon="0.65184">
        <ele>1553.1472167969</ele>
        <time>2011-06-14T08:15:14Z</time>
      </trkpt>
      <trkpt lat="42.85702" lon="0.65193">
        <ele>1554.5891113281</ele>
        <time>2011-06-14T08:15:20Z</time>
      </trkpt>
      <trkpt lat="42.85702" lon="0.65201">
        <ele>1556.0310058594</ele>
        <time>2011-06-14T08:15:26Z</time>
      </trkpt>
      <trkpt lat="42.85703" lon="0.65209">
        <ele>1556.9924316406</ele>
        <time>2011-06-14T08:15:31Z</time>
      </trkpt>
      <trkpt lat="42.85704" lon="0.65219">
        <ele>1557.4731445312</ele>
        <time>2011-06-14T08:15:38Z</time>
      </trkpt>
      <trkpt lat="42.85707" lon="0.65229">
        <ele>1557.9538574219</ele>
        <time>2011-06-14T08:15:45Z</time>
      </trkpt>
      <trkpt lat="42.85709" lon="0.65237">
        <ele>1558.4343261719</ele>
        <time>2011-06-14T08:15:51Z</time>
      </trkpt>
      <trkpt lat="42.85711" lon="0.65244">
        <ele>1558.9150390625</ele>
        <time>2011-06-14T08:15:55Z</time>
      </trkpt>
      <trkpt lat="42.85713" lon="0.65252">
        <ele>1559.3957519531</ele>
        <time>2011-06-14T08:16:01Z</time>
      </trkpt>
      <trkpt lat="42.85714" lon="0.65255">
        <ele>1559.8762207031</ele>
        <time>2011-06-14T08:16:03Z</time>
      </trkpt>
      <trkpt lat="42.85715" lon="0.6526">
        <ele>1560.8376464844</ele>
        <time>2011-06-14T08:16:06Z</time>
      </trkpt>
      <trkpt lat="42.85717" lon="0.6527">
        <ele>1562.7602539062</ele>
        <time>2011-06-14T08:16:13Z</time>
      </trkpt>
      <trkpt lat="42.85717" lon="0.6528">
        <ele>1564.2023925781</ele>
        <time>2011-06-14T08:16:19Z</time>
      </trkpt>
      <trkpt lat="42.85718" lon="0.65283">
        <ele>1564.6831054688</ele>
        <time>2011-06-14T08:16:21Z</time>
      </trkpt>
      <trkpt lat="42.85718" lon="0.65294">
        <ele>1566.125</ele>
        <time>2011-06-14T08:16:28Z</time>
      </trkpt>
      <trkpt lat="42.85719" lon="0.65297">
        <ele>1566.6057128906</ele>
        <time>2011-06-14T08:16:30Z</time>
      </trkpt>
      <trkpt lat="42.85718" lon="0.65305">
        <ele>1566.6057128906</ele>
        <time>2011-06-14T08:16:36Z</time>
      </trkpt>
      <trkpt lat="42.85719" lon="0.65312">
        <ele>1567.5668945312</ele>
        <time>2011-06-14T08:16:43Z</time>
      </trkpt>
      <trkpt lat="42.85718" lon="0.65318">
        <ele>1568.0476074219</ele>
        <time>2011-06-14T08:16:47Z</time>
      </trkpt>
      <trkpt lat="42.85717" lon="0.6533">
        <ele>1569.9702148438</ele>
        <time>2011-06-14T08:16:55Z</time>
      </trkpt>
      <trkpt lat="42.85715" lon="0.65341">
        <ele>1571.412109375</ele>
        <time>2011-06-14T08:17:02Z</time>
      </trkpt>
      <trkpt lat="42.85713" lon="0.65355">
        <ele>1572.8542480469</ele>
        <time>2011-06-14T08:17:10Z</time>
      </trkpt>
      <trkpt lat="42.85712" lon="0.65368">
        <ele>1574.2961425781</ele>
        <time>2011-06-14T08:17:18Z</time>
      </trkpt>
      <trkpt lat="42.85709" lon="0.65381">
        <ele>1575.7380371094</ele>
        <time>2011-06-14T08:17:26Z</time>
      </trkpt>
      <trkpt lat="42.85707" lon="0.6539">
        <ele>1576.21875</ele>
        <time>2011-06-14T08:17:31Z</time>
      </trkpt>
      <trkpt lat="42.85705" lon="0.65399">
        <ele>1577.1801757812</ele>
        <time>2011-06-14T08:17:37Z</time>
      </trkpt>
      <trkpt lat="42.85702" lon="0.65409">
        <ele>1578.6220703125</ele>
        <time>2011-06-14T08:17:44Z</time>
      </trkpt>
      <trkpt lat="42.85699" lon="0.6542">
        <ele>1580.0642089844</ele>
        <time>2011-06-14T08:17:51Z</time>
      </trkpt>
      <trkpt lat="42.85696" lon="0.65429">
        <ele>1581.5061035156</ele>
        <time>2011-06-14T08:17:57Z</time>
      </trkpt>
      <trkpt lat="42.85694" lon="0.65437">
        <ele>1582.4675292969</ele>
        <time>2011-06-14T08:18:02Z</time>
      </trkpt>
      <trkpt lat="42.85691" lon="0.65446">
        <ele>1583.4287109375</ele>
        <time>2011-06-14T08:18:08Z</time>
      </trkpt>
      <trkpt lat="42.85688" lon="0.65455">
        <ele>1584.8708496094</ele>
        <time>2011-06-14T08:18:14Z</time>
      </trkpt>
      <trkpt lat="42.85684" lon="0.65463">
        <ele>1585.3513183594</ele>
        <time>2011-06-14T08:18:19Z</time>
      </trkpt>
      <trkpt lat="42.85679" lon="0.65474">
        <ele>1586.7932128906</ele>
        <time>2011-06-14T08:18:27Z</time>
      </trkpt>
      <trkpt lat="42.85675" lon="0.65485">
        <ele>1588.2353515625</ele>
        <time>2011-06-14T08:18:34Z</time>
      </trkpt>
      <trkpt lat="42.85669" lon="0.65497">
        <ele>1589.6772460938</ele>
        <time>2011-06-14T08:18:43Z</time>
      </trkpt>
      <trkpt lat="42.85666" lon="0.65506">
        <ele>1591.119140625</ele>
        <time>2011-06-14T08:18:49Z</time>
      </trkpt>
      <trkpt lat="42.85666" lon="0.65507">
        <ele>1591.119140625</ele>
        <time>2011-06-14T08:18:50Z</time>
      </trkpt>
      <trkpt lat="42.85667" lon="0.65516">
        <ele>1592.5612792969</ele>
        <time>2011-06-14T08:18:57Z</time>
      </trkpt>
      <trkpt lat="42.85668" lon="0.65516">
        <ele>1592.5612792969</ele>
        <time>2011-06-14T08:18:58Z</time>
      </trkpt>
      <trkpt lat="42.85676" lon="0.65512">
        <ele>1593.5224609375</ele>
        <time>2011-06-14T08:19:06Z</time>
      </trkpt>
      <trkpt lat="42.85677" lon="0.6551">
        <ele>1594.0031738281</ele>
        <time>2011-06-14T08:19:12Z</time>
      </trkpt>
      <trkpt lat="42.85682" lon="0.65505">
        <ele>1594.0031738281</ele>
        <time>2011-06-14T08:19:17Z</time>
      </trkpt>
      <trkpt lat="42.85684" lon="0.65503">
        <ele>1594.4836425781</ele>
        <time>2011-06-14T08:19:20Z</time>
      </trkpt>
      <trkpt lat="42.85688" lon="0.65501">
        <ele>1595.4450683594</ele>
        <time>2011-06-14T08:19:24Z</time>
      </trkpt>
      <trkpt lat="42.85696" lon="0.65493">
        <ele>1596.8872070312</ele>
        <time>2011-06-14T08:19:32Z</time>
      </trkpt>
      <trkpt lat="42.85704" lon="0.65486">
        <ele>1598.8098144531</ele>
        <time>2011-06-14T08:19:40Z</time>
      </trkpt>
      <trkpt lat="42.85712" lon="0.65481">
        <ele>1600.251953125</ele>
        <time>2011-06-14T08:19:47Z</time>
      </trkpt>
      <trkpt lat="42.85715" lon="0.65479">
        <ele>1601.2131347656</ele>
        <time>2011-06-14T08:19:50Z</time>
      </trkpt>
      <trkpt lat="42.85722" lon="0.65471">
        <ele>1602.6550292969</ele>
        <time>2011-06-14T08:19:57Z</time>
      </trkpt>
      <trkpt lat="42.85727" lon="0.65466">
        <ele>1603.6164550781</ele>
        <time>2011-06-14T08:20:03Z</time>
      </trkpt>
      <trkpt lat="42.85729" lon="0.65464">
        <ele>1604.0971679688</ele>
        <time>2011-06-14T08:20:05Z</time>
      </trkpt>
      <trkpt lat="42.85736" lon="0.65458">
        <ele>1605.0583496094</ele>
        <time>2011-06-14T08:20:12Z</time>
      </trkpt>
      <trkpt lat="42.85738" lon="0.65457">
        <ele>1605.0583496094</ele>
        <time>2011-06-14T08:20:14Z</time>
      </trkpt>
      <trkpt lat="42.85748" lon="0.65452">
        <ele>1606.5002441406</ele>
        <time>2011-06-14T08:20:22Z</time>
      </trkpt>
      <trkpt lat="42.85753" lon="0.65449">
        <ele>1606.9809570312</ele>
        <time>2011-06-14T08:20:27Z</time>
      </trkpt>
      <trkpt lat="42.85761" lon="0.65445">
        <ele>1608.4228515625</ele>
        <time>2011-06-14T08:20:34Z</time>
      </trkpt>
      <trkpt lat="42.85769" lon="0.6544">
        <ele>1609.3842773438</ele>
        <time>2011-06-14T08:20:41Z</time>
      </trkpt>
      <trkpt lat="42.85776" lon="0.65437">
        <ele>1610.3454589844</ele>
        <time>2011-06-14T08:20:47Z</time>
      </trkpt>
      <trkpt lat="42.85781" lon="0.65437">
        <ele>1610.826171875</ele>
        <time>2011-06-14T08:20:51Z</time>
      </trkpt>
      <trkpt lat="42.85783" lon="0.65444">
        <ele>1612.2683105469</ele>
        <time>2011-06-14T08:20:56Z</time>
      </trkpt>
      <trkpt lat="42.85778" lon="0.65454">
        <ele>1614.1909179688</ele>
        <time>2011-06-14T08:21:04Z</time>
      </trkpt>
      <trkpt lat="42.85773" lon="0.6546">
        <ele>1615.15234375</ele>
        <time>2011-06-14T08:21:10Z</time>
      </trkpt>
      <trkpt lat="42.85767" lon="0.6547">
        <ele>1616.1135253906</ele>
        <time>2011-06-14T08:21:17Z</time>
      </trkpt>
      <trkpt lat="42.85761" lon="0.65479">
        <ele>1617.0749511719</ele>
        <time>2011-06-14T08:21:24Z</time>
      </trkpt>
      <trkpt lat="42.85757" lon="0.65486">
        <ele>1617.0749511719</ele>
        <time>2011-06-14T08:21:29Z</time>
      </trkpt>
      <trkpt lat="42.85752" lon="0.65497">
        <ele>1618.0361328125</ele>
        <time>2011-06-14T08:21:36Z</time>
      </trkpt>
      <trkpt lat="42.85747" lon="0.65509">
        <ele>1618.5168457031</ele>
        <time>2011-06-14T08:21:45Z</time>
      </trkpt>
      <trkpt lat="42.85743" lon="0.65521">
        <ele>1619.9587402344</ele>
        <time>2011-06-14T08:21:53Z</time>
      </trkpt>
      <trkpt lat="42.8574" lon="0.65532">
        <ele>1621.4006347656</ele>
        <time>2011-06-14T08:22:01Z</time>
      </trkpt>
      <trkpt lat="42.85739" lon="0.65542">
        <ele>1622.8427734375</ele>
        <time>2011-06-14T08:22:08Z</time>
      </trkpt>
      <trkpt lat="42.85738" lon="0.65546">
        <ele>1622.8427734375</ele>
        <time>2011-06-14T08:22:10Z</time>
      </trkpt>
      <trkpt lat="42.85736" lon="0.65555">
        <ele>1623.8039550781</ele>
        <time>2011-06-14T08:22:16Z</time>
      </trkpt>
      <trkpt lat="42.85734" lon="0.65562">
        <ele>1624.2846679688</ele>
        <time>2011-06-14T08:22:20Z</time>
      </trkpt>
      <trkpt lat="42.85732" lon="0.65574">
        <ele>1625.2458496094</ele>
        <time>2011-06-14T08:22:27Z</time>
      </trkpt>
      <trkpt lat="42.85731" lon="0.65582">
        <ele>1626.2072753906</ele>
        <time>2011-06-14T08:22:32Z</time>
      </trkpt>
      <trkpt lat="42.85731" lon="0.65594">
        <ele>1628.1301269531</ele>
        <time>2011-06-14T08:22:39Z</time>
      </trkpt>
      <trkpt lat="42.85731" lon="0.65607">
        <ele>1628.6108398438</ele>
        <time>2011-06-14T08:22:47Z</time>
      </trkpt>
      <trkpt lat="42.85732" lon="0.65617">
        <ele>1629.0913085938</ele>
        <time>2011-06-14T08:22:53Z</time>
      </trkpt>
      <trkpt lat="42.85732" lon="0.6563">
        <ele>1630.052734375</ele>
        <time>2011-06-14T08:23:00Z</time>
      </trkpt>
      <trkpt lat="42.85733" lon="0.6564">
        <ele>1631.4946289062</ele>
        <time>2011-06-14T08:23:06Z</time>
      </trkpt>
      <trkpt lat="42.85733" lon="0.65648">
        <ele>1631.9753417969</ele>
        <time>2011-06-14T08:23:11Z</time>
      </trkpt>
      <trkpt lat="42.85735" lon="0.6566">
        <ele>1632.4560546875</ele>
        <time>2011-06-14T08:23:18Z</time>
      </trkpt>
      <trkpt lat="42.85735" lon="0.65667">
        <ele>1632.9365234375</ele>
        <time>2011-06-14T08:23:22Z</time>
      </trkpt>
      <trkpt lat="42.85737" lon="0.65676">
        <ele>1632.4560546875</ele>
        <time>2011-06-14T08:23:27Z</time>
      </trkpt>
      <trkpt lat="42.85738" lon="0.65685">
        <ele>1632.9365234375</ele>
        <time>2011-06-14T08:23:32Z</time>
      </trkpt>
      <trkpt lat="42.85739" lon="0.65691">
        <ele>1633.4172363281</ele>
        <time>2011-06-14T08:23:36Z</time>
      </trkpt>
      <trkpt lat="42.85739" lon="0.65701">
        <ele>1634.3786621094</ele>
        <time>2011-06-14T08:23:42Z</time>
      </trkpt>
      <trkpt lat="42.85738" lon="0.65713">
        <ele>1636.3012695312</ele>
        <time>2011-06-14T08:23:49Z</time>
      </trkpt>
      <trkpt lat="42.85738" lon="0.65723">
        <ele>1637.2624511719</ele>
        <time>2011-06-14T08:23:55Z</time>
      </trkpt>
      <trkpt lat="42.85738" lon="0.65731">
        <ele>1638.7045898438</ele>
        <time>2011-06-14T08:24:00Z</time>
      </trkpt>
      <trkpt lat="42.85738" lon="0.6574">
        <ele>1639.1850585938</ele>
        <time>2011-06-14T08:24:05Z</time>
      </trkpt>
      <trkpt lat="42.85738" lon="0.65752">
        <ele>1640.626953125</ele>
        <time>2011-06-14T08:24:12Z</time>
      </trkpt>
      <trkpt lat="42.85739" lon="0.65761">
        <ele>1641.1076660156</ele>
        <time>2011-06-14T08:24:17Z</time>
      </trkpt>
      <trkpt lat="42.85738" lon="0.65769">
        <ele>1642.5498046875</ele>
        <time>2011-06-14T08:24:22Z</time>
      </trkpt>
      <trkpt lat="42.85736" lon="0.6578">
        <ele>1644.4724121094</ele>
        <time>2011-06-14T08:24:28Z</time>
      </trkpt>
      <trkpt lat="42.85734" lon="0.6579">
        <ele>1644.953125</ele>
        <time>2011-06-14T08:24:34Z</time>
      </trkpt>
      <trkpt lat="42.85733" lon="0.658">
        <ele>1645.9145507812</ele>
        <time>2011-06-14T08:24:40Z</time>
      </trkpt>
      <trkpt lat="42.85733" lon="0.65808">
        <ele>1648.3176269531</ele>
        <time>2011-06-14T08:24:45Z</time>
      </trkpt>
      <trkpt lat="42.8573" lon="0.65817">
        <ele>1649.2790527344</ele>
        <time>2011-06-14T08:24:50Z</time>
      </trkpt>
      <trkpt lat="42.85727" lon="0.65827">
        <ele>1650.7209472656</ele>
        <time>2011-06-14T08:24:57Z</time>
      </trkpt>
      <trkpt lat="42.85724" lon="0.65839">
        <ele>1652.6435546875</ele>
        <time>2011-06-14T08:25:05Z</time>
      </trkpt>
      <trkpt lat="42.8572" lon="0.65855">
        <ele>1653.6049804688</ele>
        <time>2011-06-14T08:25:15Z</time>
      </trkpt>
      <trkpt lat="42.85719" lon="0.65868">
        <ele>1654.5661621094</ele>
        <time>2011-06-14T08:25:23Z</time>
      </trkpt>
      <trkpt lat="42.85718" lon="0.65879">
        <ele>1654.0856933594</ele>
        <time>2011-06-14T08:25:29Z</time>
      </trkpt>
      <trkpt lat="42.85717" lon="0.65889">
        <ele>1654.0856933594</ele>
        <time>2011-06-14T08:25:35Z</time>
      </trkpt>
      <trkpt lat="42.85715" lon="0.65896">
        <ele>1654.5661621094</ele>
        <time>2011-06-14T08:25:40Z</time>
      </trkpt>
      <trkpt lat="42.85713" lon="0.65907">
        <ele>1656.4887695312</ele>
        <time>2011-06-14T08:25:47Z</time>
      </trkpt>
      <trkpt lat="42.85712" lon="0.65915">
        <ele>1657.4501953125</ele>
        <time>2011-06-14T08:25:52Z</time>
      </trkpt>
      <trkpt lat="42.8571" lon="0.65923">
        <ele>1658.4113769531</ele>
        <time>2011-06-14T08:25:57Z</time>
      </trkpt>
      <trkpt lat="42.85704" lon="0.65933">
        <ele>1660.3342285156</ele>
        <time>2011-06-14T08:26:05Z</time>
      </trkpt>
      <trkpt lat="42.857" lon="0.65938">
        <ele>1661.2956542969</ele>
        <time>2011-06-14T08:26:10Z</time>
      </trkpt>
      <trkpt lat="42.85698" lon="0.65946">
        <ele>1661.2956542969</ele>
        <time>2011-06-14T08:26:16Z</time>
      </trkpt>
      <trkpt lat="42.85696" lon="0.65955">
        <ele>1660.8149414062</ele>
        <time>2011-06-14T08:26:22Z</time>
      </trkpt>
      <trkpt lat="42.85696" lon="0.65963">
        <ele>1661.2956542969</ele>
        <time>2011-06-14T08:26:27Z</time>
      </trkpt>
      <trkpt lat="42.85694" lon="0.65972">
        <ele>1661.7763671875</ele>
        <time>2011-06-14T08:26:32Z</time>
      </trkpt>
      <trkpt lat="42.85689" lon="0.65979">
        <ele>1663.2182617188</ele>
        <time>2011-06-14T08:26:38Z</time>
      </trkpt>
      <trkpt lat="42.85685" lon="0.65986">
        <ele>1664.66015625</ele>
        <time>2011-06-14T08:26:44Z</time>
      </trkpt>
      <trkpt lat="42.85683" lon="0.65993">
        <ele>1665.6215820312</ele>
        <time>2011-06-14T08:26:49Z</time>
      </trkpt>
      <trkpt lat="42.85683" lon="0.66003">
        <ele>1665.6215820312</ele>
        <time>2011-06-14T08:26:55Z</time>
      </trkpt>
      <trkpt lat="42.85683" lon="0.66006">
        <ele>1665.6215820312</ele>
        <time>2011-06-14T08:26:57Z</time>
      </trkpt>
      <trkpt lat="42.85683" lon="0.66018">
        <ele>1666.5827636719</ele>
        <time>2011-06-14T08:27:04Z</time>
      </trkpt>
      <trkpt lat="42.85682" lon="0.66021">
        <ele>1667.5439453125</ele>
        <time>2011-06-14T08:27:06Z</time>
      </trkpt>
      <trkpt lat="42.85675" lon="0.66026">
        <ele>1668.5053710938</ele>
        <time>2011-06-14T08:27:13Z</time>
      </trkpt>
      <trkpt lat="42.85666" lon="0.66029">
        <ele>1669.947265625</ele>
        <time>2011-06-14T08:27:20Z</time>
      </trkpt>
      <trkpt lat="42.85661" lon="0.66033">
        <ele>1670.4279785156</ele>
        <time>2011-06-14T08:27:25Z</time>
      </trkpt>
      <trkpt lat="42.85653" lon="0.66039">
        <ele>1671.3891601562</ele>
        <time>2011-06-14T08:27:32Z</time>
      </trkpt>
      <trkpt lat="42.85643" lon="0.66046">
        <ele>1673.3120117188</ele>
        <time>2011-06-14T08:27:40Z</time>
      </trkpt>
      <trkpt lat="42.85637" lon="0.66048">
        <ele>1674.2731933594</ele>
        <time>2011-06-14T08:27:45Z</time>
      </trkpt>
      <trkpt lat="42.85631" lon="0.66049">
        <ele>1675.234375</ele>
        <time>2011-06-14T08:27:50Z</time>
      </trkpt>
      <trkpt lat="42.85621" lon="0.66054">
        <ele>1676.6767578125</ele>
        <time>2011-06-14T08:27:58Z</time>
      </trkpt>
      <trkpt lat="42.85608" lon="0.66057">
        <ele>1679.0798339844</ele>
        <time>2011-06-14T08:28:09Z</time>
      </trkpt>
      <trkpt lat="42.85601" lon="0.66061">
        <ele>1680.0412597656</ele>
        <time>2011-06-14T08:28:15Z</time>
      </trkpt>
      <trkpt lat="42.85593" lon="0.66064">
        <ele>1681.0026855469</ele>
        <time>2011-06-14T08:28:21Z</time>
      </trkpt>
      <trkpt lat="42.85584" lon="0.6606">
        <ele>1681.9638671875</ele>
        <time>2011-06-14T08:28:28Z</time>
      </trkpt>
      <trkpt lat="42.85578" lon="0.66054">
        <ele>1682.9250488281</ele>
        <time>2011-06-14T08:28:34Z</time>
      </trkpt>
      <trkpt lat="42.85576" lon="0.66045">
        <ele>1683.8864746094</ele>
        <time>2011-06-14T08:28:39Z</time>
      </trkpt>
      <trkpt lat="42.85573" lon="0.6603">
        <ele>1684.8479003906</ele>
        <time>2011-06-14T08:28:47Z</time>
      </trkpt>
      <trkpt lat="42.85567" lon="0.66016">
        <ele>1684.8479003906</ele>
        <time>2011-06-14T08:28:56Z</time>
      </trkpt>
      <trkpt lat="42.85559" lon="0.66002">
        <ele>1685.3283691406</ele>
        <time>2011-06-14T08:29:06Z</time>
      </trkpt>
      <trkpt lat="42.85552" lon="0.65988">
        <ele>1685.8090820312</ele>
        <time>2011-06-14T08:29:15Z</time>
      </trkpt>
      <trkpt lat="42.85548" lon="0.65973">
        <ele>1687.2509765625</ele>
        <time>2011-06-14T08:29:24Z</time>
      </trkpt>
      <trkpt lat="42.85542" lon="0.65965">
        <ele>1687.7316894531</ele>
        <time>2011-06-14T08:29:31Z</time>
      </trkpt>
      <trkpt lat="42.85533" lon="0.65963">
        <ele>1689.1735839844</ele>
        <time>2011-06-14T08:29:38Z</time>
      </trkpt>
      <trkpt lat="42.85524" lon="0.65964">
        <ele>1690.6154785156</ele>
        <time>2011-06-14T08:29:45Z</time>
      </trkpt>
      <trkpt lat="42.85512" lon="0.65967">
        <ele>1692.0578613281</ele>
        <time>2011-06-14T08:29:55Z</time>
      </trkpt>
      <trkpt lat="42.85504" lon="0.65969">
        <ele>1693.0190429688</ele>
        <time>2011-06-14T08:30:01Z</time>
      </trkpt>
      <trkpt lat="42.85491" lon="0.65969">
        <ele>1694.4609375</ele>
        <time>2011-06-14T08:30:11Z</time>
      </trkpt>
      <trkpt lat="42.8548" lon="0.65971">
        <ele>1695.9030761719</ele>
        <time>2011-06-14T08:30:19Z</time>
      </trkpt>
      <trkpt lat="42.85479" lon="0.65971">
        <ele>1695.9030761719</ele>
        <time>2011-06-14T08:30:20Z</time>
      </trkpt>
      <trkpt lat="42.8547" lon="0.65975">
        <ele>1696.8642578125</ele>
        <time>2011-06-14T08:30:27Z</time>
      </trkpt>
      <trkpt lat="42.85461" lon="0.65981">
        <ele>1697.3449707031</ele>
        <time>2011-06-14T08:30:34Z</time>
      </trkpt>
      <trkpt lat="42.85453" lon="0.65988">
        <ele>1698.3061523438</ele>
        <time>2011-06-14T08:30:42Z</time>
      </trkpt>
      <trkpt lat="42.85445" lon="0.65997">
        <ele>1698.7868652344</ele>
        <time>2011-06-14T08:30:49Z</time>
      </trkpt>
      <trkpt lat="42.85441" lon="0.66003">
        <ele>1699.7482910156</ele>
        <time>2011-06-14T08:30:54Z</time>
      </trkpt>
      <trkpt lat="42.85436" lon="0.66012">
        <ele>1700.7094726562</ele>
        <time>2011-06-14T08:31:00Z</time>
      </trkpt>
      <trkpt lat="42.85434" lon="0.66021">
        <ele>1701.1901855469</ele>
        <time>2011-06-14T08:31:05Z</time>
      </trkpt>
      <trkpt lat="42.85431" lon="0.6603">
        <ele>1702.6320800781</ele>
        <time>2011-06-14T08:31:11Z</time>
      </trkpt>
      <trkpt lat="42.8543" lon="0.66039">
        <ele>1703.1127929688</ele>
        <time>2011-06-14T08:31:16Z</time>
      </trkpt>
      <trkpt lat="42.85429" lon="0.66049">
        <ele>1704.5546875</ele>
        <time>2011-06-14T08:31:22Z</time>
      </trkpt>
      <trkpt lat="42.85427" lon="0.66056">
        <ele>1705.0354003906</ele>
        <time>2011-06-14T08:31:26Z</time>
      </trkpt>
      <trkpt lat="42.85427" lon="0.66067">
        <ele>1705.9965820312</ele>
        <time>2011-06-14T08:31:32Z</time>
      </trkpt>
      <trkpt lat="42.85426" lon="0.66079">
        <ele>1706.9580078125</ele>
        <time>2011-06-14T08:31:39Z</time>
      </trkpt>
      <trkpt lat="42.85425" lon="0.66092">
        <ele>1708.880859375</ele>
        <time>2011-06-14T08:31:46Z</time>
      </trkpt>
      <trkpt lat="42.85424" lon="0.66099">
        <ele>1709.3615722656</ele>
        <time>2011-06-14T08:31:50Z</time>
      </trkpt>
      <trkpt lat="42.85424" lon="0.66105">
        <ele>1710.3227539062</ele>
        <time>2011-06-14T08:31:54Z</time>
      </trkpt>
      <trkpt lat="42.85423" lon="0.66115">
        <ele>1711.7648925781</ele>
        <time>2011-06-14T08:32:00Z</time>
      </trkpt>
      <trkpt lat="42.85421" lon="0.66127">
        <ele>1714.16796875</ele>
        <time>2011-06-14T08:32:07Z</time>
      </trkpt>
      <trkpt lat="42.8542" lon="0.66135">
        <ele>1716.0905761719</ele>
        <time>2011-06-14T08:32:12Z</time>
      </trkpt>
      <trkpt lat="42.85418" lon="0.66142">
        <ele>1717.0520019531</ele>
        <time>2011-06-14T08:32:17Z</time>
      </trkpt>
      <trkpt lat="42.85418" lon="0.66148">
        <ele>1717.5324707031</ele>
        <time>2011-06-14T08:32:21Z</time>
      </trkpt>
      <trkpt lat="42.85419" lon="0.6615">
        <ele>1718.0131835938</ele>
        <time>2011-06-14T08:32:23Z</time>
      </trkpt>
      <trkpt lat="42.85424" lon="0.66149">
        <ele>1719.9357910156</ele>
        <time>2011-06-14T08:32:29Z</time>
      </trkpt>
      <trkpt lat="42.85427" lon="0.66147">
        <ele>1720.4165039062</ele>
        <time>2011-06-14T08:32:31Z</time>
      </trkpt>
      <trkpt lat="42.85433" lon="0.66138">
        <ele>1722.3391113281</ele>
        <time>2011-06-14T08:32:38Z</time>
      </trkpt>
      <trkpt lat="42.85439" lon="0.66134">
        <ele>1723.3005371094</ele>
        <time>2011-06-14T08:32:43Z</time>
      </trkpt>
      <trkpt lat="42.85446" lon="0.66133">
        <ele>1724.7426757812</ele>
        <time>2011-06-14T08:32:49Z</time>
      </trkpt>
      <trkpt lat="42.85452" lon="0.66135">
        <ele>1726.1845703125</ele>
        <time>2011-06-14T08:32:55Z</time>
      </trkpt>
      <trkpt lat="42.85458" lon="0.66141">
        <ele>1728.1071777344</ele>
        <time>2011-06-14T08:33:01Z</time>
      </trkpt>
      <trkpt lat="42.85461" lon="0.6615">
        <ele>1728.587890625</ele>
        <time>2011-06-14T08:33:07Z</time>
      </trkpt>
      <trkpt lat="42.85462" lon="0.66156">
        <ele>1729.068359375</ele>
        <time>2011-06-14T08:33:11Z</time>
      </trkpt>
      <trkpt lat="42.85461" lon="0.66166">
        <ele>1730.0297851562</ele>
        <time>2011-06-14T08:33:18Z</time>
      </trkpt>
      <trkpt lat="42.8546" lon="0.66171">
        <ele>1731.4716796875</ele>
        <time>2011-06-14T08:33:22Z</time>
      </trkpt>
      <trkpt lat="42.85459" lon="0.66174">
        <ele>1731.9523925781</ele>
        <time>2011-06-14T08:33:24Z</time>
      </trkpt>
      <trkpt lat="42.8546" lon="0.66182">
        <ele>1732.9135742188</ele>
        <time>2011-06-14T08:33:30Z</time>
      </trkpt>
      <trkpt lat="42.8546" lon="0.66184">
        <ele>1733.3942871094</ele>
        <time>2011-06-14T08:33:31Z</time>
      </trkpt>
      <trkpt lat="42.85458" lon="0.66193">
        <ele>1734.8364257812</ele>
        <time>2011-06-14T08:33:37Z</time>
      </trkpt>
      <trkpt lat="42.85455" lon="0.66201">
        <ele>1736.7587890625</ele>
        <time>2011-06-14T08:33:43Z</time>
      </trkpt>
      <trkpt lat="42.85454" lon="0.66207">
        <ele>1737.2395019531</ele>
        <time>2011-06-14T08:33:48Z</time>
      </trkpt>
      <trkpt lat="42.85452" lon="0.66213">
        <ele>1738.2009277344</ele>
        <time>2011-06-14T08:33:53Z</time>
      </trkpt>
      <trkpt lat="42.8545" lon="0.66219">
        <ele>1740.6042480469</ele>
        <time>2011-06-14T08:33:59Z</time>
      </trkpt>
      <trkpt lat="42.85447" lon="0.66227">
        <ele>1742.5270996094</ele>
        <time>2011-06-14T08:34:05Z</time>
      </trkpt>
      <trkpt lat="42.85445" lon="0.66233">
        <ele>1743.48828125</ele>
        <time>2011-06-14T08:34:10Z</time>
      </trkpt>
      <trkpt lat="42.85443" lon="0.66238">
        <ele>1744.4494628906</ele>
        <time>2011-06-14T08:34:15Z</time>
      </trkpt>
      <trkpt lat="42.8544" lon="0.66244">
        <ele>1745.8916015625</ele>
        <time>2011-06-14T08:34:20Z</time>
      </trkpt>
      <trkpt lat="42.85439" lon="0.66248">
        <ele>1747.3334960938</ele>
        <time>2011-06-14T08:34:25Z</time>
      </trkpt>
      <trkpt lat="42.85437" lon="0.66254">
        <ele>1748.775390625</ele>
        <time>2011-06-14T08:34:31Z</time>
      </trkpt>
      <trkpt lat="42.85436" lon="0.66258">
        <ele>1749.7368164062</ele>
        <time>2011-06-14T08:34:38Z</time>
      </trkpt>
      <trkpt lat="42.85435" lon="0.66262">
        <ele>1750.2175292969</ele>
        <time>2011-06-14T08:34:42Z</time>
      </trkpt>
      <trkpt lat="42.85433" lon="0.66265">
        <ele>1751.1787109375</ele>
        <time>2011-06-14T08:34:46Z</time>
      </trkpt>
      <trkpt lat="42.85432" lon="0.66268">
        <ele>1753.1013183594</ele>
        <time>2011-06-14T08:34:52Z</time>
      </trkpt>
      <trkpt lat="42.85435" lon="0.66272">
        <ele>1753.58203125</ele>
        <time>2011-06-14T08:34:59Z</time>
      </trkpt>
      <trkpt lat="42.85438" lon="0.66277">
        <ele>1754.5432128906</ele>
        <time>2011-06-14T08:35:04Z</time>
      </trkpt>
      <trkpt lat="42.85439" lon="0.66285">
        <ele>1755.9851074219</ele>
        <time>2011-06-14T08:35:10Z</time>
      </trkpt>
      <trkpt lat="42.85435" lon="0.66287">
        <ele>1756.4660644531</ele>
        <time>2011-06-14T08:35:14Z</time>
      </trkpt>
      <trkpt lat="42.85426" lon="0.66291">
        <ele>1758.388671875</ele>
        <time>2011-06-14T08:35:23Z</time>
      </trkpt>
      <trkpt lat="42.85419" lon="0.66296">
        <ele>1758.8693847656</ele>
        <time>2011-06-14T08:35:30Z</time>
      </trkpt>
      <trkpt lat="42.85412" lon="0.66301">
        <ele>1760.3112792969</ele>
        <time>2011-06-14T08:35:38Z</time>
      </trkpt>
      <trkpt lat="42.85405" lon="0.66306">
        <ele>1761.2727050781</ele>
        <time>2011-06-14T08:35:46Z</time>
      </trkpt>
      <trkpt lat="42.85399" lon="0.66309">
        <ele>1762.2338867188</ele>
        <time>2011-06-14T08:35:52Z</time>
      </trkpt>
      <trkpt lat="42.85389" lon="0.66315">
        <ele>1763.67578125</ele>
        <time>2011-06-14T08:36:02Z</time>
      </trkpt>
      <trkpt lat="42.85381" lon="0.6632">
        <ele>1765.1179199219</ele>
        <time>2011-06-14T08:36:10Z</time>
      </trkpt>
      <trkpt lat="42.85375" lon="0.66323">
        <ele>1765.5986328125</ele>
        <time>2011-06-14T08:36:16Z</time>
      </trkpt>
      <trkpt lat="42.85368" lon="0.66328">
        <ele>1767.0405273438</ele>
        <time>2011-06-14T08:36:23Z</time>
      </trkpt>
      <trkpt lat="42.8536" lon="0.66332">
        <ele>1767.5209960938</ele>
        <time>2011-06-14T08:36:30Z</time>
      </trkpt>
      <trkpt lat="42.85352" lon="0.66335">
        <ele>1767.5209960938</ele>
        <time>2011-06-14T08:36:36Z</time>
      </trkpt>
      <trkpt lat="42.85345" lon="0.66337">
        <ele>1768.0017089844</ele>
        <time>2011-06-14T08:36:42Z</time>
      </trkpt>
      <trkpt lat="42.85336" lon="0.66337">
        <ele>1768.0017089844</ele>
        <time>2011-06-14T08:36:49Z</time>
      </trkpt>
      <trkpt lat="42.85327" lon="0.66334">
        <ele>1768.482421875</ele>
        <time>2011-06-14T08:36:56Z</time>
      </trkpt>
      <trkpt lat="42.8532" lon="0.6633">
        <ele>1768.9631347656</ele>
        <time>2011-06-14T08:37:02Z</time>
      </trkpt>
      <trkpt lat="42.85315" lon="0.66322">
        <ele>1768.9631347656</ele>
        <time>2011-06-14T08:37:08Z</time>
      </trkpt>
      <trkpt lat="42.85306" lon="0.66314">
        <ele>1770.4050292969</ele>
        <time>2011-06-14T08:37:17Z</time>
      </trkpt>
      <trkpt lat="42.85303" lon="0.66316">
        <ele>1770.8857421875</ele>
        <time>2011-06-14T08:37:20Z</time>
      </trkpt>
      <trkpt lat="42.85306" lon="0.66325">
        <ele>1773.2893066406</ele>
        <time>2011-06-14T08:37:27Z</time>
      </trkpt>
      <trkpt lat="42.8531" lon="0.66333">
        <ele>1773.7697753906</ele>
        <time>2011-06-14T08:37:32Z</time>
      </trkpt>
      <trkpt lat="42.85311" lon="0.66342">
        <ele>1775.2116699219</ele>
        <time>2011-06-14T08:37:38Z</time>
      </trkpt>
      <trkpt lat="42.85313" lon="0.66349">
        <ele>1777.1345214844</ele>
        <time>2011-06-14T08:37:43Z</time>
      </trkpt>
      <trkpt lat="42.85317" lon="0.66354">
        <ele>1779.5375976562</ele>
        <time>2011-06-14T08:37:48Z</time>
      </trkpt>
      <trkpt lat="42.85322" lon="0.6636">
        <ele>1781.4602050781</ele>
        <time>2011-06-14T08:37:54Z</time>
      </trkpt>
      <trkpt lat="42.85328" lon="0.66368">
        <ele>1783.8635253906</ele>
        <time>2011-06-14T08:38:01Z</time>
      </trkpt>
      <trkpt lat="42.85335" lon="0.66371">
        <ele>1785.3054199219</ele>
        <time>2011-06-14T08:38:07Z</time>
      </trkpt>
      <trkpt lat="42.8534" lon="0.66375">
        <ele>1786.2668457031</ele>
        <time>2011-06-14T08:38:12Z</time>
      </trkpt>
      <trkpt lat="42.85349" lon="0.66379">
        <ele>1788.1896972656</ele>
        <time>2011-06-14T08:38:20Z</time>
      </trkpt>
      <trkpt lat="42.85353" lon="0.6638">
        <ele>1788.6704101562</ele>
        <time>2011-06-14T08:38:23Z</time>
      </trkpt>
      <trkpt lat="42.85361" lon="0.6638">
        <ele>1791.5541992188</ele>
        <time>2011-06-14T08:38:30Z</time>
      </trkpt>
      <trkpt lat="42.85362" lon="0.6638">
        <ele>1792.0349121094</ele>
        <time>2011-06-14T08:38:31Z</time>
      </trkpt>
      <trkpt lat="42.85365" lon="0.66387">
        <ele>1792.99609375</ele>
        <time>2011-06-14T08:38:36Z</time>
      </trkpt>
      <trkpt lat="42.85364" lon="0.66388">
        <ele>1793.4768066406</ele>
        <time>2011-06-14T08:38:37Z</time>
      </trkpt>
      <trkpt lat="42.85355" lon="0.66392">
        <ele>1794.4379882812</ele>
        <time>2011-06-14T08:38:45Z</time>
      </trkpt>
      <trkpt lat="42.85345" lon="0.66395">
        <ele>1794.9187011719</ele>
        <time>2011-06-14T08:38:54Z</time>
      </trkpt>
      <trkpt lat="42.85337" lon="0.66398">
        <ele>1796.3608398438</ele>
        <time>2011-06-14T08:39:01Z</time>
      </trkpt>
      <trkpt lat="42.8533" lon="0.664">
        <ele>1795.8801269531</ele>
        <time>2011-06-14T08:39:07Z</time>
      </trkpt>
      <trkpt lat="42.85323" lon="0.66399">
        <ele>1795.8801269531</ele>
        <time>2011-06-14T08:39:12Z</time>
      </trkpt>
      <trkpt lat="42.85316" lon="0.66399">
        <ele>1796.3608398438</ele>
        <time>2011-06-14T08:39:18Z</time>
      </trkpt>
      <trkpt lat="42.85309" lon="0.66396">
        <ele>1795.8801269531</ele>
        <time>2011-06-14T08:39:24Z</time>
      </trkpt>
      <trkpt lat="42.85302" lon="0.66396">
        <ele>1795.3994140625</ele>
        <time>2011-06-14T08:39:30Z</time>
      </trkpt>
      <trkpt lat="42.85292" lon="0.66395">
        <ele>1797.3220214844</ele>
        <time>2011-06-14T08:39:38Z</time>
      </trkpt>
      <trkpt lat="42.85285" lon="0.66391">
        <ele>1798.7639160156</ele>
        <time>2011-06-14T08:39:44Z</time>
      </trkpt>
      <trkpt lat="42.85279" lon="0.66383">
        <ele>1800.2060546875</ele>
        <time>2011-06-14T08:39:50Z</time>
      </trkpt>
      <trkpt lat="42.85271" lon="0.66377">
        <ele>1800.6865234375</ele>
        <time>2011-06-14T08:39:57Z</time>
      </trkpt>
      <trkpt lat="42.85262" lon="0.6637">
        <ele>1801.6479492188</ele>
        <time>2011-06-14T08:40:05Z</time>
      </trkpt>
      <trkpt lat="42.85256" lon="0.66363">
        <ele>1802.1284179688</ele>
        <time>2011-06-14T08:40:11Z</time>
      </trkpt>
      <trkpt lat="42.85247" lon="0.6635">
        <ele>1804.0515136719</ele>
        <time>2011-06-14T08:40:21Z</time>
      </trkpt>
      <trkpt lat="42.85241" lon="0.6634">
        <ele>1805.9738769531</ele>
        <time>2011-06-14T08:40:28Z</time>
      </trkpt>
      <trkpt lat="42.85238" lon="0.66332">
        <ele>1805.9738769531</ele>
        <time>2011-06-14T08:40:33Z</time>
      </trkpt>
      <trkpt lat="42.85233" lon="0.66319">
        <ele>1808.3771972656</ele>
        <time>2011-06-14T08:40:42Z</time>
      </trkpt>
      <trkpt lat="42.85229" lon="0.66307">
        <ele>1810.2998046875</ele>
        <time>2011-06-14T08:40:50Z</time>
      </trkpt>
      <trkpt lat="42.85226" lon="0.66296">
        <ele>1812.703125</ele>
        <time>2011-06-14T08:40:57Z</time>
      </trkpt>
      <trkpt lat="42.85223" lon="0.66287">
        <ele>1813.6643066406</ele>
        <time>2011-06-14T08:41:03Z</time>
      </trkpt>
      <trkpt lat="42.8522" lon="0.66278">
        <ele>1816.5483398438</ele>
        <time>2011-06-14T08:41:09Z</time>
      </trkpt>
      <trkpt lat="42.85215" lon="0.6627">
        <ele>1818.9516601562</ele>
        <time>2011-06-14T08:41:15Z</time>
      </trkpt>
      <trkpt lat="42.85208" lon="0.66261">
        <ele>1821.8356933594</ele>
        <time>2011-06-14T08:41:22Z</time>
      </trkpt>
      <trkpt lat="42.85201" lon="0.66252">
        <ele>1823.7583007812</ele>
        <time>2011-06-14T08:41:30Z</time>
      </trkpt>
      <trkpt lat="42.85195" lon="0.66244">
        <ele>1824.2390136719</ele>
        <time>2011-06-14T08:41:37Z</time>
      </trkpt>
      <trkpt lat="42.85186" lon="0.66235">
        <ele>1824.7197265625</ele>
        <time>2011-06-14T08:41:46Z</time>
      </trkpt>
      <trkpt lat="42.85178" lon="0.66229">
        <ele>1825.6809082031</ele>
        <time>2011-06-14T08:41:53Z</time>
      </trkpt>
      <trkpt lat="42.85173" lon="0.66224">
        <ele>1826.6423339844</ele>
        <time>2011-06-14T08:41:58Z</time>
      </trkpt>
      <trkpt lat="42.85165" lon="0.66218">
        <ele>1828.5649414062</ele>
        <time>2011-06-14T08:42:05Z</time>
      </trkpt>
      <trkpt lat="42.8516" lon="0.66214">
        <ele>1829.5261230469</ele>
        <time>2011-06-14T08:42:10Z</time>
      </trkpt>
      <trkpt lat="42.85154" lon="0.6621">
        <ele>1830.4875488281</ele>
        <time>2011-06-14T08:42:18Z</time>
      </trkpt>
      <trkpt lat="42.8515" lon="0.66207">
        <ele>1830.9682617188</ele>
        <time>2011-06-14T08:42:26Z</time>
      </trkpt>
      <trkpt lat="42.85141" lon="0.66203">
        <ele>1832.41015625</ele>
        <time>2011-06-14T08:42:35Z</time>
      </trkpt>
      <trkpt lat="42.85138" lon="0.66202">
        <ele>1832.890625</ele>
        <time>2011-06-14T08:42:40Z</time>
      </trkpt>
      <trkpt lat="42.85134" lon="0.66203">
        <ele>1833.8520507812</ele>
        <time>2011-06-14T08:42:44Z</time>
      </trkpt>
      <trkpt lat="42.8513" lon="0.66206">
        <ele>1834.3327636719</ele>
        <time>2011-06-14T08:42:48Z</time>
      </trkpt>
      <trkpt lat="42.85125" lon="0.66215">
        <ele>1835.7746582031</ele>
        <time>2011-06-14T08:42:56Z</time>
      </trkpt>
      <trkpt lat="42.85122" lon="0.66222">
        <ele>1835.7746582031</ele>
        <time>2011-06-14T08:43:01Z</time>
      </trkpt>
      <trkpt lat="42.85122" lon="0.66228">
        <ele>1836.2556152344</ele>
        <time>2011-06-14T08:43:08Z</time>
      </trkpt>
      <trkpt lat="42.8512" lon="0.66239">
        <ele>1837.6975097656</ele>
        <time>2011-06-14T08:43:15Z</time>
      </trkpt>
      <trkpt lat="42.85118" lon="0.66249">
        <ele>1838.1782226562</ele>
        <time>2011-06-14T08:43:22Z</time>
      </trkpt>
      <trkpt lat="42.85115" lon="0.66262">
        <ele>1839.1394042969</ele>
        <time>2011-06-14T08:43:30Z</time>
      </trkpt>
      <trkpt lat="42.85116" lon="0.66271">
        <ele>1840.1008300781</ele>
        <time>2011-06-14T08:43:37Z</time>
      </trkpt>
      <trkpt lat="42.85122" lon="0.66267">
        <ele>1841.0620117188</ele>
        <time>2011-06-14T08:43:43Z</time>
      </trkpt>
      <trkpt lat="42.85123" lon="0.66264">
        <ele>1841.0620117188</ele>
        <time>2011-06-14T08:43:45Z</time>
      </trkpt>
      <trkpt lat="42.85128" lon="0.66251">
        <ele>1842.0234375</ele>
        <time>2011-06-14T08:43:54Z</time>
      </trkpt>
      <trkpt lat="42.85137" lon="0.66248">
        <ele>1842.9846191406</ele>
        <time>2011-06-14T08:44:01Z</time>
      </trkpt>
      <trkpt lat="42.8514" lon="0.6625">
        <ele>1842.9846191406</ele>
        <time>2011-06-14T08:44:04Z</time>
      </trkpt>
      <trkpt lat="42.85145" lon="0.66257">
        <ele>1844.4265136719</ele>
        <time>2011-06-14T08:44:10Z</time>
      </trkpt>
      <trkpt lat="42.8515" lon="0.66267">
        <ele>1845.8686523438</ele>
        <time>2011-06-14T08:44:17Z</time>
      </trkpt>
      <trkpt lat="42.85154" lon="0.66276">
        <ele>1846.8298339844</ele>
        <time>2011-06-14T08:44:23Z</time>
      </trkpt>
      <trkpt lat="42.85158" lon="0.66288">
        <ele>1848.7524414062</ele>
        <time>2011-06-14T08:44:31Z</time>
      </trkpt>
      <trkpt lat="42.85161" lon="0.66298">
        <ele>1850.1945800781</ele>
        <time>2011-06-14T08:44:38Z</time>
      </trkpt>
      <trkpt lat="42.85162" lon="0.66299">
        <ele>1850.1945800781</ele>
        <time>2011-06-14T08:44:39Z</time>
      </trkpt>
      <trkpt lat="42.85165" lon="0.6631">
        <ele>1851.6364746094</ele>
        <time>2011-06-14T08:44:46Z</time>
      </trkpt>
      <trkpt lat="42.85166" lon="0.66319">
        <ele>1852.1171875</ele>
        <time>2011-06-14T08:44:52Z</time>
      </trkpt>
      <trkpt lat="42.85167" lon="0.66329">
        <ele>1853.0786132812</ele>
        <time>2011-06-14T08:44:58Z</time>
      </trkpt>
      <trkpt lat="42.85168" lon="0.66339">
        <ele>1854.0400390625</ele>
        <time>2011-06-14T08:45:04Z</time>
      </trkpt>
      <trkpt lat="42.8517" lon="0.66349">
        <ele>1855.4819335938</ele>
        <time>2011-06-14T08:45:10Z</time>
      </trkpt>
      <trkpt lat="42.85171" lon="0.66359">
        <ele>1855.9624023438</ele>
        <time>2011-06-14T08:45:16Z</time>
      </trkpt>
      <trkpt lat="42.85172" lon="0.66367">
        <ele>1856.923828125</ele>
        <time>2011-06-14T08:45:21Z</time>
      </trkpt>
      <trkpt lat="42.85172" lon="0.66379">
        <ele>1857.8852539062</ele>
        <time>2011-06-14T08:45:28Z</time>
      </trkpt>
      <trkpt lat="42.85172" lon="0.66389">
        <ele>1857.8852539062</ele>
        <time>2011-06-14T08:45:34Z</time>
      </trkpt>
      <trkpt lat="42.85173" lon="0.66401">
        <ele>1858.8464355469</ele>
        <time>2011-06-14T08:45:41Z</time>
      </trkpt>
      <trkpt lat="42.85172" lon="0.66413">
        <ele>1860.7690429688</ele>
        <time>2011-06-14T08:45:49Z</time>
      </trkpt>
      <trkpt lat="42.85171" lon="0.66426">
        <ele>1862.2109375</ele>
        <time>2011-06-14T08:45:57Z</time>
      </trkpt>
      <trkpt lat="42.85171" lon="0.66436">
        <ele>1863.6528320312</ele>
        <time>2011-06-14T08:46:04Z</time>
      </trkpt>
      <trkpt lat="42.85169" lon="0.66446">
        <ele>1864.6142578125</ele>
        <time>2011-06-14T08:46:10Z</time>
      </trkpt>
      <trkpt lat="42.85168" lon="0.66455">
        <ele>1865.0949707031</ele>
        <time>2011-06-14T08:46:16Z</time>
      </trkpt>
      <trkpt lat="42.85165" lon="0.66468">
        <ele>1867.017578125</ele>
        <time>2011-06-14T08:46:25Z</time>
      </trkpt>
      <trkpt lat="42.85162" lon="0.66477">
        <ele>1867.498046875</ele>
        <time>2011-06-14T08:46:31Z</time>
      </trkpt>
      <trkpt lat="42.8516" lon="0.66484">
        <ele>1868.4597167969</ele>
        <time>2011-06-14T08:46:36Z</time>
      </trkpt>
      <trkpt lat="42.8516" lon="0.66485">
        <ele>1868.9404296875</ele>
        <time>2011-06-14T08:46:37Z</time>
      </trkpt>
      <trkpt lat="42.85157" lon="0.66492">
        <ele>1870.3823242188</ele>
        <time>2011-06-14T08:46:43Z</time>
      </trkpt>
      <trkpt lat="42.85155" lon="0.66497">
        <ele>1871.3435058594</ele>
        <time>2011-06-14T08:46:47Z</time>
      </trkpt>
      <trkpt lat="42.85148" lon="0.66507">
        <ele>1872.7856445312</ele>
        <time>2011-06-14T08:46:56Z</time>
      </trkpt>
      <trkpt lat="42.85141" lon="0.66516">
        <ele>1874.7082519531</ele>
        <time>2011-06-14T08:47:05Z</time>
      </trkpt>
      <trkpt lat="42.85135" lon="0.66525">
        <ele>1875.6694335938</ele>
        <time>2011-06-14T08:47:13Z</time>
      </trkpt>
      <trkpt lat="42.85129" lon="0.66531">
        <ele>1876.1501464844</ele>
        <time>2011-06-14T08:47:20Z</time>
      </trkpt>
      <trkpt lat="42.85128" lon="0.66531">
        <ele>1876.1501464844</ele>
        <time>2011-06-14T08:47:27Z</time>
      </trkpt>
      <trkpt lat="42.85127" lon="0.66535">
        <ele>1876.630859375</ele>
        <time>2011-06-14T08:47:35Z</time>
      </trkpt>
      <trkpt lat="42.85129" lon="0.66543">
        <ele>1877.1115722656</ele>
        <time>2011-06-14T08:47:42Z</time>
      </trkpt>
      <trkpt lat="42.8513" lon="0.66549">
        <ele>1877.1115722656</ele>
        <time>2011-06-14T08:47:46Z</time>
      </trkpt>
      <trkpt lat="42.85132" lon="0.66558">
        <ele>1878.0727539062</ele>
        <time>2011-06-14T08:47:51Z</time>
      </trkpt>
      <trkpt lat="42.85137" lon="0.66572">
        <ele>1879.9953613281</ele>
        <time>2011-06-14T08:48:00Z</time>
      </trkpt>
      <trkpt lat="42.85141" lon="0.66581">
        <ele>1881.91796875</ele>
        <time>2011-06-14T08:48:08Z</time>
      </trkpt>
      <trkpt lat="42.85143" lon="0.66584">
        <ele>1882.3986816406</ele>
        <time>2011-06-14T08:48:15Z</time>
      </trkpt>
      <trkpt lat="42.85147" lon="0.66593">
        <ele>1885.2827148438</ele>
        <time>2011-06-14T08:48:24Z</time>
      </trkpt>
      <trkpt lat="42.85154" lon="0.66595">
        <ele>1886.244140625</ele>
        <time>2011-06-14T08:48:32Z</time>
      </trkpt>
      <trkpt lat="42.85159" lon="0.666">
        <ele>1887.2053222656</ele>
        <time>2011-06-14T08:48:38Z</time>
      </trkpt>
    </trkseg>
  </trk>
</gpx>